M I D A S
Marine Information and Data Acquisition System
Tripno 1701 of the Zeeleeuw from 2009-05-28 06:58:06 to 2009-05-28 15:08:03
Back to CruiseResearch ActivitiesStationsMapUnderway DataData graphs

EquipmentUnitsComment
TimeDGPSUTC
LatitudeDGPSDM.mWGS84
LongitudeDGPSDM.mWGS84
TemperatureSBE03/SBE38deg celciusITS90
ConductivitySBE21S/mITS90
SalinitySBE21 Practical Salinity Units
ChlorophylAChelsea fluorimeterg/lCalibrated in Aceton
Missing or incorrect values are displayed as -999
Sea surface data collected by the RV Zeeleeuw from 2009-05-28 07:10:27 to 2009-05-28 15:17:22
                                                                                    Next 1000 lines
Time Latitude Longitude Temperature Conductivity Salinity ChlorophylA
2009-05-28 07:10:37 51°13.663 2°55.956 -999 0.024302 0.138718 0.078977
2009-05-28 07:10:42 51°13.664 2°55.954 -999 0.02564 0.146378 0.078977
2009-05-28 07:10:48 51°13.665 2°55.95 -999 0.025331 0.144616 0.078977
2009-05-28 07:10:52 51°13.665 2°55.947 -999 0.025331 0.144616 0.078977
2009-05-28 07:10:58 51°13.667 2°55.943 -999 0.025434 0.145206 0.078977
2009-05-28 07:11:04 51°13.669 2°55.938 -999 0.025228 0.144029 0.078977
2009-05-28 07:11:09 51°13.67 2°55.933 -999 0.025125 0.143439 0.078977
2009-05-28 07:11:15 51°13.672 2°55.928 -999 0.025125 0.143444 0.044153
2009-05-28 07:11:20 51°13.673 2°55.923 -999 0.025228 0.144034 0.078977
2009-05-28 07:11:26 51°13.675 2°55.917 -999 0.025228 0.144034 0.078977
2009-05-28 07:11:31 51°13.677 2°55.911 -999 0.025228 0.144034 0.078977
2009-05-28 07:11:36 51°13.679 2°55.905 -999 0.025331 0.144629 0.078977
2009-05-28 07:11:41 51°13.68 2°55.9 -999 0.025023 0.142857 0.078977
2009-05-28 07:11:46 51°13.682 2°55.894 -999 0.025023 0.142854 0.078977
2009-05-28 07:11:51 51°13.684 2°55.887 -999 0.025125 0.143444 0.078977
2009-05-28 07:11:56 51°13.686 2°55.881 -999 0.025125 0.143444 0.078977
2009-05-28 07:12:01 51°13.687 2°55.875 -999 0.025331 0.144629 0.078977
2009-05-28 07:12:06 51°13.689 2°55.868 -999 0.025228 0.144039 0.078977
2009-05-28 07:12:11 51°13.69 2°55.862 -999 0.025023 0.142857 0.078977
2009-05-28 07:12:16 51°13.692 2°55.855 -999 0.025023 0.14286 0.078977
2009-05-28 07:12:21 51°13.693 2°55.848 -999 0.025023 0.14286 0.078977
2009-05-28 07:12:26 51°13.694 2°55.841 -999 0.025023 0.142857 0.044153
2009-05-28 07:12:31 51°13.695 2°55.834 -999 0.025023 0.142857 0.078977
2009-05-28 07:12:36 51°13.696 2°55.827 -999 0.025125 0.143447 0.078977
2009-05-28 07:12:41 51°13.697 2°55.821 -999 0.025125 0.143444 0.078977
2009-05-28 07:12:46 51°13.698 2°55.814 -999 0.025023 0.142854 0.078977
2009-05-28 07:12:51 51°13.698 2°55.807 -999 0.025125 0.143444 0.078977
2009-05-28 07:12:56 51°13.699 2°55.801 -999 0.025125 0.143444 0.078977
2009-05-28 07:13:01 51°13.699 2°55.794 -999 0.025125 0.143444 0.078977
2009-05-28 07:13:06 51°13.699 2°55.788 -999 0.025023 0.142852 0.078977
2009-05-28 07:13:11 51°13.699 2°55.782 -999 0.025228 0.144034 0.078977
2009-05-28 07:13:16 51°13.699 2°55.776 -999 0.025228 0.144036 0.078977
2009-05-28 07:13:21 51°13.699 2°55.77 -999 0.025228 0.144036 0.078977
2009-05-28 07:13:26 51°13.699 2°55.765 -999 0.025228 0.144036 0.078977
2009-05-28 07:13:31 51°13.699 2°55.76 -999 0.025228 0.144039 0.078977
2009-05-28 07:13:36 51°13.698 2°55.755 -999 0.025331 0.144629 0.078977
2009-05-28 07:13:40 51°13.698 2°55.752 -999 0.025434 0.145219 0.078977
2009-05-28 07:13:45 51°13.698 2°55.748 -999 0.025949 0.148176 0.078977
2009-05-28 07:13:50 51°13.698 2°55.746 -999 0.02564 0.146415 0.078977
2009-05-28 07:13:55 51°13.699 2°55.744 -999 0.02564 0.146415 0.078977
2009-05-28 07:14:00 51°13.699 2°55.743 -999 0.026052 0.148786 0.078977
2009-05-28 07:14:05 51°13.7 2°55.743 -999 0.025949 0.148198 0.078977
2009-05-28 07:14:10 51°13.701 2°55.743 -999 0.025537 0.145827 0.078977
2009-05-28 07:14:15 51°13.701 2°55.744 -999 0.025434 0.145232 0.078977
2009-05-28 07:14:20 51°13.703 2°55.744 -999 0.025537 0.145817 0.078977
2009-05-28 07:14:24 51°13.703 2°55.744 -999 0.025537 0.145817 0.078977
2009-05-28 07:14:29 51°13.704 2°55.745 -999 0.02564 0.146413 0.078977
2009-05-28 07:14:34 51°13.706 2°55.745 -999 0.025125 0.143452 0.078977
2009-05-28 07:14:39 51°13.707 2°55.746 -999 0.025228 0.144036 0.078977
2009-05-28 07:14:44 51°13.707 2°55.746 -999 0.02492 0.142257 0.078977
2009-05-28 07:14:48 51°13.708 2°55.746 -999 0.02492 0.14225 0.078977
2009-05-28 07:14:53 51°13.709 2°55.746 -999 0.02492 0.14225 0.078977
2009-05-28 07:14:58 51°13.709 2°55.746 -999 0.02492 0.142247 0.078977
2009-05-28 07:15:03 51°13.709 2°55.746 -999 0.024817 0.141658 0.078977
2009-05-28 07:15:08 51°13.708 2°55.745 -999 0.024611 0.140467 0.078977
2009-05-28 07:15:12 51°13.708 2°55.745 -999 0.024714 0.141064 0.078977
2009-05-28 07:15:17 51°13.707 2°55.744 -999 0.025125 0.143424 0.078977
2009-05-28 07:15:22 51°13.705 2°55.743 -999 0.025125 0.143424 0.078977
2009-05-28 07:15:28 51°13.704 2°55.743 -999 0.025331 0.144613 0.078977
2009-05-28 07:15:32 51°13.703 2°55.742 -999 0.025331 0.144613 0.078977
2009-05-28 07:15:38 51°13.701 2°55.741 -999 0.02564 0.146391 0.078977
2009-05-28 07:15:44 51°13.7 2°55.741 -999 0.026052 0.148767 0.044153
2009-05-28 07:15:49 51°13.7 2°55.74 -999 0.025846 0.147594 0.078977
2009-05-28 07:15:55 51°13.7 2°55.74 -999 0.025846 0.147594 0.078977
2009-05-28 07:16:00 51°13.701 2°55.739 -999 0.025949 0.148187 0.078977
2009-05-28 07:16:05 51°13.702 2°55.739 -999 0.026463 0.151148 0.078977
2009-05-28 07:16:10 51°13.704 2°55.738 -999 0.026772 0.152939 0.078977
2009-05-28 07:16:15 51°13.706 2°55.737 -999 0.026669 0.15235 0.078977
2009-05-28 07:16:20 51°13.709 2°55.735 -999 0.026669 0.152353 0.078977
2009-05-28 07:16:24 51°13.712 2°55.733 -999 0.026669 0.152353 0.078977
2009-05-28 07:16:29 51°13.716 2°55.73 -999 0.025949 0.148206 0.078977
2009-05-28 07:16:34 51°13.72 2°55.727 -999 0.026052 0.148788 0.078977
2009-05-28 07:16:39 51°13.724 2°55.723 -999 0.025949 0.148192 0.078977
2009-05-28 07:16:44 51°13.729 2°55.718 -999 0.026052 0.148778 0.078977
2009-05-28 07:16:49 51°13.735 2°55.713 -999 0.025537 0.145814 0.078977
2009-05-28 07:16:54 51°13.74 2°55.708 -999 0.025537 0.145814 0.078977
2009-05-28 07:16:58 51°13.745 2°55.703 -999 0.025434 0.145214 0.078977
2009-05-28 07:17:03 51°13.751 2°55.697 -999 0.025228 0.144029 0.078977
2009-05-28 07:17:08 51°13.758 2°55.691 -999 0.025228 0.144021 0.078977
2009-05-28 07:17:13 51°13.765 2°55.684 -999 0.02492 0.142242 0.078977
2009-05-28 07:17:18 51°13.772 2°55.678 -999 0.02492 0.142239 0.078977
2009-05-28 07:17:23 51°13.78 2°55.671 -999 0.02492 0.142239 0.078977
2009-05-28 07:17:28 51°13.788 2°55.665 -999 0.02492 0.142237 0.078977
2009-05-28 07:17:32 51°13.794 2°55.66 -999 0.025331 0.144606 0.078977
2009-05-28 07:17:36 51°13.801 2°55.655 -999 0.025228 0.144024 0.078977
2009-05-28 07:17:42 51°13.811 2°55.647 -999 0.025125 0.143436 0.078977
2009-05-28 07:17:47 51°13.819 2°55.64 -999 0.024817 0.14166 0.078977
2009-05-28 07:17:52 51°13.828 2°55.633 -999 0.024817 0.14166 0.078977
2009-05-28 07:17:57 51°13.837 2°55.627 -999 0.025228 0.144016 0.078977
2009-05-28 07:18:03 51°13.847 2°55.619 -999 0.025228 0.144016 0.078977
2009-05-28 07:18:07 51°13.855 2°55.614 -999 0.025228 0.144021 0.078977
2009-05-28 07:18:12 51°13.864 2°55.608 -999 0.025125 0.143434 0.078977
2009-05-28 07:18:17 51°13.873 2°55.601 -999 0.025434 0.145206 0.078977
2009-05-28 07:18:22 51°13.882 2°55.595 -999 0.025434 0.145206 0.078977
2009-05-28 07:18:27 51°13.892 2°55.589 -999 0.025537 0.145801 0.078977
2009-05-28 07:18:32 51°13.901 2°55.582 -999 0.025331 0.144619 0.078977
2009-05-28 07:18:37 51°13.911 2°55.576 -999 0.025228 0.144021 0.078977
2009-05-28 07:18:43 51°13.922 2°55.568 -999 0.025125 0.143434 0.078977
2009-05-28 07:18:47 51°13.93 2°55.563 -999 0.025125 0.143439 0.078977
2009-05-28 07:18:52 51°13.94 2°55.556 -999 0.025125 0.143439 0.078977
2009-05-28 07:18:57 51°13.95 2°55.55 -999 0.025125 0.143436 0.078977
2009-05-28 07:19:03 51°13.961 2°55.542 -999 0.025537 0.145801 0.078977
2009-05-28 07:19:07 51°13.969 2°55.537 -999 0.025434 0.145209 0.078977
2009-05-28 07:19:12 51°13.979 2°55.531 -999 0.025023 0.142844 0.078977
2009-05-28 07:19:17 51°13.988 2°55.524 -999 0.025023 0.142844 0.078977
2009-05-28 07:19:23 51°14 2°55.516 -999 0.025331 0.144613 0.078977
2009-05-28 07:19:27 51°14.007 2°55.511 -999 0.025537 0.145796 0.078977
2009-05-28 07:19:32 51°14.017 2°55.504 -999 0.025537 0.145799 0.078977
2009-05-28 07:19:37 51°14.026 2°55.497 -999 0.025228 0.144026 0.078977
2009-05-28 07:19:42 51°14.036 2°55.49 -999 0.025434 0.145198 0.078977
2009-05-28 07:19:48 51°14.047 2°55.482 -999 0.02636 0.150532 0.078977
2009-05-28 07:19:52 51°14.055 2°55.476 -999 0.02636 0.150532 0.078977
2009-05-28 07:19:57 51°14.065 2°55.469 -999 0.02564 0.146402 0.078977
2009-05-28 07:20:03 51°14.077 2°55.46 -999 0.025331 0.144619 0.078977
2009-05-28 07:20:07 51°14.085 2°55.453 -999 0.025331 0.144613 0.078977
2009-05-28 07:20:12 51°14.095 2°55.445 -999 0.025537 0.145783 0.078977
2009-05-28 07:20:17 51°14.105 2°55.437 -999 0.025743 0.146961 0.078977
2009-05-28 07:20:23 51°14.118 2°55.427 -999 0.025743 0.146961 0.078977
2009-05-28 07:20:27 51°14.126 2°55.421 -999 0.025537 0.145791 0.078977
2009-05-28 07:20:32 51°14.137 2°55.413 -999 0.025949 0.14816 0.078977
2009-05-28 07:20:37 51°14.148 2°55.404 -999 0.025846 0.14757 0.078977
2009-05-28 07:20:42 51°14.158 2°55.395 -999 0.025537 0.145801 0.078977
2009-05-28 07:20:47 51°14.169 2°55.386 -999 0.026052 0.148759 0.078977
2009-05-28 07:20:52 51°14.18 2°55.376 -999 0.026052 0.148759 0.078977
2009-05-28 07:20:57 51°14.19 2°55.366 -999 0.025434 0.145214 0.078977
2009-05-28 07:21:03 51°14.203 2°55.353 -999 0.02564 0.146389 0.078977
2009-05-28 07:21:07 51°14.211 2°55.344 -999 0.026772 0.152906 0.078977
2009-05-28 07:21:12 51°14.221 2°55.332 -999 0.027595 0.157674 0.078977
2009-05-28 07:21:17 51°14.231 2°55.32 -999 0.026978 0.154134 0.078977
2009-05-28 07:21:23 51°14.242 2°55.304 -999 0.026978 0.154134 0.078977
2009-05-28 07:21:27 51°14.249 2°55.293 -999 0.026463 0.151156 0.078977
2009-05-28 07:21:32 51°14.258 2°55.278 -999 0.026154 0.149353 0.078977
2009-05-28 07:21:37 51°14.267 2°55.263 -999 0.02564 0.146368 0.078977
2009-05-28 07:21:43 51°14.277 2°55.244 -999 0.02636 0.150499 0.078977
2009-05-28 07:21:48 51°14.286 2°55.229 -999 0.026257 0.149903 0.078977
2009-05-28 07:21:52 51°14.293 2°55.216 -999 0.026257 0.149903 0.078977
2009-05-28 07:21:57 51°14.302 2°55.201 -999 0.026052 0.148719 0.078977
2009-05-28 07:22:02 51°14.311 2°55.185 -999 0.02564 0.146344 0.078977
2009-05-28 07:22:07 51°14.319 2°55.168 -999 0.025846 0.147517 0.078977
2009-05-28 07:22:12 51°14.329 2°55.152 -999 0.025949 0.148107 0.078977
2009-05-28 07:22:17 51°14.338 2°55.136 -999 0.025949 0.148112 0.078977
2009-05-28 07:22:22 51°14.347 2°55.12 -999 0.025949 0.148112 0.078977
2009-05-28 07:22:28 51°14.358 2°55.1 -999 0.025743 0.146942 0.078977
2009-05-28 07:22:32 51°14.366 2°55.087 -999 0.025743 0.14694 0.078977
2009-05-28 07:22:37 51°14.375 2°55.07 -999 0.026257 0.149903 0.078977
2009-05-28 07:22:43 51°14.386 2°55.048 -999 0.025846 0.147546 0.078977
2009-05-28 07:22:47 51°14.393 2°55.033 -999 0.025331 0.14458 0.078977
2009-05-28 07:22:52 51°14.402 2°55.014 -999 0.025331 0.14458 0.078977
2009-05-28 07:22:57 51°14.411 2°54.995 -999 0.025537 0.145749 0.044153
2009-05-28 07:23:02 51°14.42 2°54.975 -999 0.025434 0.145164 0.078977
2009-05-28 07:23:07 51°14.429 2°54.955 -999 0.02492 0.142212 0.078977
2009-05-28 07:23:12 51°14.438 2°54.935 -999 0.024199 0.138078 0.078977
2009-05-28 07:23:17 51°14.448 2°54.914 -999 0.025331 0.144538 0.078977
2009-05-28 07:23:23 51°14.459 2°54.889 -999 0.025331 0.144538 0.078977
2009-05-28 07:23:27 51°14.468 2°54.873 -999 0.025023 0.142791 0.078977
2009-05-28 07:23:32 51°14.478 2°54.852 -999 0.024714 0.141011 0.078977
2009-05-28 07:23:38 51°14.49 2°54.828 -999 0.025023 0.142783 0.078977
2009-05-28 07:23:42 51°14.499 2°54.812 -999 0.025125 0.143375 0.078977
2009-05-28 07:23:47 51°14.509 2°54.792 -999 0.024817 0.141625 0.078977
2009-05-28 07:23:52 51°14.52 2°54.772 -999 0.024817 0.141625 0.078977
2009-05-28 07:23:57 51°14.532 2°54.753 -999 0.025331 0.144575 0.078977
2009-05-28 07:24:03 51°14.545 2°54.729 -999 0.024405 0.13926 0.078977
2009-05-28 07:24:07 51°14.554 2°54.714 -999 0.024508 0.139838 0.078977
2009-05-28 07:24:12 51°14.565 2°54.694 -999 0.024405 0.139262 0.078977
2009-05-28 07:24:17 51°14.577 2°54.675 -999 0.024817 0.14165 0.078977
2009-05-28 07:24:22 51°14.589 2°54.657 -999 0.024817 0.14165 0.078977
2009-05-28 07:24:27 51°14.601 2°54.639 -999 0.024714 0.141091 0.078977
2009-05-28 07:24:32 51°14.613 2°54.62 -999 0.024096 0.137519 0.078977
2009-05-28 07:24:37 51°14.625 2°54.602 -999 0.025331 0.144567 0.078977
2009-05-28 07:24:42 51°14.637 2°54.585 -999 0.025023 0.142819 0.078977
2009-05-28 07:24:48 51°14.652 2°54.564 -999 0.024611 0.14046 0.078977
2009-05-28 07:24:52 51°14.662 2°54.551 -999 0.024611 0.14046 0.078977
2009-05-28 07:24:57 51°14.675 2°54.534 -999 0.024817 0.141645 0.078977
2009-05-28 07:25:03 51°14.69 2°54.515 -999 0.025125 0.143485 0.078977
2009-05-28 07:25:07 51°14.7 2°54.502 -999 0.025331 0.144668 0.078977
2009-05-28 07:25:12 51°14.713 2°54.486 -999 0.025228 0.144116 0.078977
2009-05-28 07:25:17 51°14.727 2°54.47 -999 0.02492 0.142331 0.078977
2009-05-28 07:25:22 51°14.739 2°54.454 -999 0.02492 0.142331 0.078977
2009-05-28 07:25:27 51°14.752 2°54.438 -999 0.02492 0.142329 0.078977
2009-05-28 07:25:32 51°14.765 2°54.423 -999 0.024611 0.140582 0.078977
2009-05-28 07:25:37 51°14.778 2°54.407 -999 0.024817 0.141769 0.078977
2009-05-28 07:25:43 51°14.794 2°54.388 -999 0.024302 0.138829 0.078977
2009-05-28 07:25:47 51°14.804 2°54.375 -999 0.023788 0.135919 0.078977
2009-05-28 07:25:52 51°14.817 2°54.359 -999 0.023788 0.135919 0.078977
2009-05-28 07:25:58 51°14.833 2°54.341 -999 0.024817 0.141856 0.078977
2009-05-28 07:26:03 51°14.847 2°54.326 -999 0.023993 0.137501 0.078977
2009-05-28 07:26:08 51°14.86 2°54.311 -999 0.024817 0.142435 0.078977
2009-05-28 07:26:12 51°14.871 2°54.3 -999 0.024817 0.142269 0.078977
2009-05-28 07:26:17 51°14.884 2°54.285 -999 0.02492 0.142469 0.078977
2009-05-28 07:26:22 51°14.897 2°54.271 -999 0.02492 0.142469 0.078977
2009-05-28 07:26:28 51°14.914 2°54.254 -999 0.02564 0.146705 0.078977
2009-05-28 07:26:32 51°14.925 2°54.243 -999 0.025023 0.143136 0.078977
2009-05-28 07:26:36 51°14.935 2°54.231 -999 0.025228 0.144456 0.078977
2009-05-28 07:26:42 51°14.951 2°54.215 -999 0.024611 0.141303 0.078977
2009-05-28 07:26:47 51°14.965 2°54.201 -999 0.024611 0.141252 0.078977
2009-05-28 07:26:52 51°14.979 2°54.188 -999 0.024611 0.141252 0.078977
2009-05-28 07:26:57 51°14.992 2°54.174 -999 0.024405 0.140027 0.078977
2009-05-28 07:27:03 51°15.008 2°54.158 -999 0.024199 0.138863 0.078977
2009-05-28 07:27:07 51°15.019 2°54.147 -999 0.024096 0.1383 0.078977
2009-05-28 07:27:12 51°15.033 2°54.133 -999 0.023685 0.135777 0.078977
2009-05-28 07:27:17 51°15.046 2°54.119 -999 0.023993 0.137469 0.078977
2009-05-28 07:27:22 51°15.06 2°54.105 -999 0.023993 0.137469 0.078977
2009-05-28 07:27:27 51°15.073 2°54.091 -999 0.024096 0.13806 0.078977
2009-05-28 07:27:32 51°15.087 2°54.077 -999 0.023993 0.137632 0.078977
2009-05-28 07:27:37 51°15.1 2°54.063 -999 0.024096 0.138236 0.078977
2009-05-28 07:27:43 51°15.117 2°54.046 -999 0.024817 0.142325 0.078977
2009-05-28 07:27:47 51°15.128 2°54.035 -999 0.024611 0.141161 0.078977
2009-05-28 07:27:52 51°15.142 2°54.021 -999 0.024611 0.141161 0.078977
2009-05-28 07:27:58 51°15.159 2°54.006 -999 0.024817 0.14242 0.078977
2009-05-28 07:28:03 51°15.173 2°53.993 -999 0.024096 0.138427 0.078977
2009-05-28 07:28:07 51°15.184 2°53.982 -999 0.024302 0.139603 0.078977
2009-05-28 07:28:12 51°15.198 2°53.97 -999 0.024405 0.140224 0.078977
2009-05-28 07:28:17 51°15.212 2°53.957 -999 0.024302 0.139628 0.078977
2009-05-28 07:28:23 51°15.229 2°53.942 -999 0.024302 0.139628 0.078977
2009-05-28 07:28:27 51°15.24 2°53.932 -999 0.024199 0.138917 0.078977
2009-05-28 07:28:32 51°15.254 2°53.919 -999 0.023685 0.135901 0.078977
2009-05-28 07:28:37 51°15.268 2°53.906 -999 0.023685 0.135882 0.078977
2009-05-28 07:28:43 51°15.284 2°53.89 -999 0.023993 0.137669 0.078977
2009-05-28 07:28:48 51°15.299 2°53.878 -999 0.023993 0.137711 0.078977
2009-05-28 07:28:52 51°15.31 2°53.868 -999 0.023993 0.137711 0.078977
2009-05-28 07:28:57 51°15.324 2°53.856 -999 0.024508 0.140718 0.078977
2009-05-28 07:29:02 51°15.338 2°53.843 -999 0.024405 0.140125 0.078977
2009-05-28 07:29:07 51°15.352 2°53.831 -999 0.023993 0.137669 0.078977
2009-05-28 07:29:12 51°15.366 2°53.818 -999 0.024405 0.140024 0.078977
2009-05-28 07:29:17 51°15.381 2°53.806 -999 0.023993 0.137676 0.078977
2009-05-28 07:29:22 51°15.395 2°53.793 -999 0.023993 0.137676 0.078977
2009-05-28 07:29:27 51°15.409 2°53.781 -999 0.023891 0.137141 0.078977
2009-05-28 07:29:32 51°15.423 2°53.769 -999 0.023891 0.137114 0.078977
2009-05-28 07:29:37 51°15.437 2°53.756 -999 0.024096 0.138233 0.078977
2009-05-28 07:29:43 51°15.455 2°53.742 -999 0.024096 0.138221 0.078977
2009-05-28 07:29:47 51°15.466 2°53.732 -999 0.023788 0.136476 0.078977
2009-05-28 07:29:52 51°15.481 2°53.721 -999 0.023788 0.136476 0.078977
2009-05-28 07:29:57 51°15.495 2°53.709 -999 0.023891 0.137057 0.078977
2009-05-28 07:30:02 51°15.509 2°53.697 -999 0.023788 0.136446 0.078977
2009-05-28 07:30:07 51°15.523 2°53.685 -999 0.023993 0.137671 0.078977
2009-05-28 07:30:12 51°15.538 2°53.674 -999 0.023788 0.136517 0.078977
2009-05-28 07:30:17 51°15.552 2°53.662 -999 0.025228 0.144837 0.078977
2009-05-28 07:30:23 51°15.57 2°53.648 -999 0.025228 0.144837 0.078977
2009-05-28 07:30:27 51°15.581 2°53.638 -999 0.024405 0.140188 0.078977
2009-05-28 07:30:32 51°15.595 2°53.627 -999 0.025228 0.144976 0.078977
2009-05-28 07:30:36 51°15.607 2°53.618 -999 0.023788 0.136652 0.078977
2009-05-28 07:30:43 51°15.627 2°53.601 -999 0.024096 0.13834 0.078977
2009-05-28 07:30:47 51°15.639 2°53.592 -999 0.024096 0.138338 0.078977
2009-05-28 07:30:52 51°15.653 2°53.58 -999 0.024096 0.138338 0.078977
2009-05-28 07:30:57 51°15.667 2°53.568 -999 0.024096 0.138355 0.078977
2009-05-28 07:31:02 51°15.682 2°53.556 -999 0.024714 0.141975 0.078977
2009-05-28 07:31:07 51°15.696 2°53.544 -999 0.023891 0.137259 0.078977
2009-05-28 07:31:12 51°15.711 2°53.532 -999 0.024096 0.13843 0.078977
2009-05-28 07:31:17 51°15.725 2°53.52 -999 0.023891 0.137198 0.078977
2009-05-28 07:31:22 51°15.739 2°53.508 -999 0.023891 0.137198 0.078977
2009-05-28 07:31:27 51°15.754 2°53.496 -999 0.024199 0.138957 0.078977
2009-05-28 07:31:32 51°15.768 2°53.484 -999 0.023891 0.137183 0.078977
2009-05-28 07:31:37 51°15.783 2°53.472 -999 0.023993 0.13779 0.078977
2009-05-28 07:31:43 51°15.8 2°53.457 -999 0.024199 0.13899 0.078977
2009-05-28 07:31:47 51°15.812 2°53.448 -999 0.024199 0.138967 0.078977
2009-05-28 07:31:52 51°15.826 2°53.435 -999 0.024199 0.138967 0.078977
2009-05-28 07:31:57 51°15.841 2°53.423 -999 0.024508 0.140733 0.078977
2009-05-28 07:32:02 51°15.855 2°53.412 -999 0.024611 0.141339 0.078977
2009-05-28 07:32:07 51°15.87 2°53.399 -999 0.024199 0.139002 0.078977
2009-05-28 07:32:12 51°15.884 2°53.387 -999 0.024199 0.138985 0.078977
2009-05-28 07:32:17 51°15.899 2°53.375 -999 0.023582 0.135424 0.078977
2009-05-28 07:32:23 51°15.916 2°53.36 -999 0.023582 0.135424 0.078977
2009-05-28 07:32:27 51°15.928 2°53.35 -999 0.023788 0.136613 0.078977
2009-05-28 07:32:32 51°15.942 2°53.338 -999 0.023993 0.137797 0.078977
2009-05-28 07:32:37 51°15.957 2°53.326 -999 0.024199 0.13899 0.078977
2009-05-28 07:32:43 51°15.975 2°53.311 -999 0.023891 0.137222 0.078977
2009-05-28 07:32:47 51°15.986 2°53.301 -999 0.023891 0.13723 0.078977
2009-05-28 07:32:52 51°16.001 2°53.289 -999 0.023891 0.13723 0.078977
2009-05-28 07:32:57 51°16.016 2°53.277 -999 0.024199 0.138997 0.078977
2009-05-28 07:33:03 51°16.033 2°53.261 -999 0.023582 0.135441 0.078977
2009-05-28 07:33:08 51°16.047 2°53.249 -999 0.024096 0.138385 0.078977
2009-05-28 07:33:12 51°16.059 2°53.24 -999 0.023376 0.134197 0.078977
2009-05-28 07:33:17 51°16.073 2°53.227 -999 0.023993 0.137731 0.078977
2009-05-28 07:33:22 51°16.088 2°53.215 -999 0.023993 0.137731 0.078977
2009-05-28 07:33:27 51°16.102 2°53.202 -999 0.023993 0.13775 0.078977
2009-05-28 07:33:32 51°16.117 2°53.191 -999 0.023479 0.134825 0.078977
2009-05-28 07:33:37 51°16.131 2°53.178 -999 0.023993 0.13779 0.078977
2009-05-28 07:33:42 51°16.146 2°53.166 -999 0.023685 0.136011 0.078977
2009-05-28 07:33:48 51°16.163 2°53.151 -999 0.023993 0.137805 0.078977
2009-05-28 07:33:52 51°16.175 2°53.141 -999 0.023993 0.137805 0.078977
2009-05-28 07:33:57 51°16.19 2°53.129 -999 0.024611 0.141415 0.078977
2009-05-28 07:34:03 51°16.207 2°53.114 -999 0.023685 0.136084 0.078977
2009-05-28 07:34:07 51°16.218 2°53.104 -999 0.023788 0.136647 0.078977
2009-05-28 07:34:12 51°16.233 2°53.091 -999 0.023993 0.137797 0.078977
2009-05-28 07:34:17 51°16.247 2°53.079 -999 0.024096 0.13838 0.078977
2009-05-28 07:34:22 51°16.262 2°53.066 -999 0.024096 0.13838 0.078977
2009-05-28 07:34:27 51°16.276 2°53.054 -999 0.023788 0.136615 0.078977
2009-05-28 07:34:32 51°16.291 2°53.042 -999 0.024199 0.138985 0.078977
2009-05-28 07:34:37 51°16.305 2°53.03 -999 0.023993 0.13781 0.078977
2009-05-28 07:34:43 51°16.323 2°53.015 -999 0.024096 0.1384 0.078977
2009-05-28 07:34:47 51°16.334 2°53.005 -999 0.023788 0.136603 0.078977
2009-05-28 07:34:52 51°16.349 2°52.993 -999 0.023788 0.136603 0.078977
2009-05-28 07:34:57 51°16.363 2°52.98 -999 0.023891 0.137185 0.078977
2009-05-28 07:35:03 51°16.38 2°52.966 -999 0.023582 0.135402 0.078977
2009-05-28 07:35:07 51°16.392 2°52.956 -999 0.024714 0.141914 0.078977
2009-05-28 07:35:12 51°16.407 2°52.944 -999 0.023685 0.136006 0.078977
2009-05-28 07:35:17 51°16.421 2°52.931 -999 0.024096 0.138315 0.078977
2009-05-28 07:35:23 51°16.438 2°52.916 -999 0.024096 0.138315 0.078977
2009-05-28 07:35:27 51°16.45 2°52.906 -999 0.023582 0.135375 0.078977
2009-05-28 07:35:32 51°16.464 2°52.893 -999 0.023993 0.1378 0.078977
2009-05-28 07:35:37 51°16.479 2°52.881 -999 0.023582 0.135468 0.078977
2009-05-28 07:35:42 51°16.493 2°52.869 -999 0.023376 0.134291 0.078977
2009-05-28 07:35:47 51°16.507 2°52.857 -999 0.023685 0.136074 0.078977
2009-05-28 07:35:52 51°16.522 2°52.844 -999 0.023685 0.136074 0.078977
2009-05-28 07:35:57 51°16.536 2°52.832 -999 0.024302 0.139633 0.078977
2009-05-28 07:36:03 51°16.554 2°52.818 -999 0.024199 0.13902 0.078977
2009-05-28 07:36:07 51°16.565 2°52.808 -999 0.024508 0.140779 0.078977
2009-05-28 07:36:12 51°16.58 2°52.796 -999 0.024096 0.138387 0.078977
2009-05-28 07:36:17 51°16.594 2°52.784 -999 0.023685 0.136035 0.078977
2009-05-28 07:36:22 51°16.609 2°52.772 -999 0.023685 0.136035 0.078977
2009-05-28 07:36:27 51°16.623 2°52.76 -999 0.023891 0.137205 0.078977
2009-05-28 07:36:32 51°16.638 2°52.747 -999 0.023273 0.133649 0.078977
2009-05-28 07:36:37 51°16.652 2°52.735 -999 0.023067 0.132469 0.078977
2009-05-28 07:36:43 51°16.669 2°52.72 -999 0.024508 0.140753 0.078977
2009-05-28 07:36:47 51°16.681 2°52.711 -999 0.024405 0.140173 0.078977
2009-05-28 07:36:52 51°16.695 2°52.7 -999 0.024405 0.140173 0.078977
2009-05-28 07:36:57 51°16.71 2°52.688 -999 0.024714 0.141901 0.078977
2009-05-28 07:37:02 51°16.725 2°52.678 -999 0.024405 0.140123 0.078977
2009-05-28 07:37:07 51°16.739 2°52.667 -999 0.026875 0.154419 0.078977
2009-05-28 07:37:12 51°16.754 2°52.658 -999 0.025949 0.14906 0.078977
2009-05-28 07:37:17 51°16.769 2°52.648 -999 0.026566 0.152613 0.078977
2009-05-28 07:37:23 51°16.787 2°52.637 -999 0.026566 0.152613 0.078977
2009-05-28 07:37:27 51°16.799 2°52.63 -999 0.024714 0.141911 0.078977
2009-05-28 07:37:32 51°16.814 2°52.62 -999 0.025125 0.144277 0.078977
2009-05-28 07:37:37 51°16.829 2°52.611 -999 0.025434 0.146051 0.078977
2009-05-28 07:37:43 51°16.848 2°52.601 -999 0.024611 0.141346 0.078977
2009-05-28 07:37:47 51°16.86 2°52.594 -999 0.025023 0.143743 0.078977
2009-05-28 07:37:52 51°16.875 2°52.586 -999 0.025023 0.143743 0.078977
2009-05-28 07:37:57 51°16.891 2°52.58 -999 0.026463 0.152095 0.078977
2009-05-28 07:38:03 51°16.909 2°52.574 -999 0.026669 0.15327 0.078977
2009-05-28 07:38:08 51°16.925 2°52.57 -999 0.026669 0.153242 0.078977
2009-05-28 07:38:12 51°16.937 2°52.566 -999 0.025949 0.14907 0.078977
2009-05-28 07:38:17 51°16.953 2°52.563 -999 0.025331 0.145499 0.078977
2009-05-28 07:38:23 51°16.973 2°52.56 -999 0.025331 0.145499 0.078977
2009-05-28 07:38:28 51°16.989 2°52.557 -999 0.025228 0.144902 0.113802
2009-05-28 07:38:32 51°17.001 2°52.555 -999 0.025331 0.145483 0.078977
2009-05-28 07:38:37 51°17.017 2°52.553 -999 0.025537 0.146666 0.078977
2009-05-28 07:38:42 51°17.033 2°52.551 -999 0.024817 0.142507 0.078977
2009-05-28 07:38:47 51°17.049 2°52.549 -999 0.025228 0.144881 0.078977
2009-05-28 07:38:52 51°17.065 2°52.547 -999 0.025228 0.144881 0.078977
2009-05-28 07:38:57 51°17.081 2°52.545 -999 0.02564 0.14726 0.078977
2009-05-28 07:39:03 51°17.1 2°52.543 -999 0.025228 0.144876 0.078977
2009-05-28 07:39:07 51°17.113 2°52.542 -999 0.026257 0.150825 0.078977
2009-05-28 07:39:12 51°17.129 2°52.54 -999 0.025537 0.146684 0.113802
2009-05-28 07:39:17 51°17.145 2°52.538 -999 0.025537 0.146727 0.078977
2009-05-28 07:39:23 51°17.164 2°52.537 -999 0.025537 0.146727 0.078977
2009-05-28 07:39:27 51°17.177 2°52.535 -999 0.025125 0.144368 0.113802
2009-05-28 07:39:32 51°17.192 2°52.535 -999 0.025331 0.145567 0.078977
2009-05-28 07:39:37 51°17.208 2°52.533 -999 0.025228 0.144981 0.078977
2009-05-28 07:39:43 51°17.227 2°52.532 -999 0.025023 0.143725 0.078977
2009-05-28 07:39:48 51°17.243 2°52.531 -999 0.024096 0.13839 0.078977
2009-05-28 07:39:52 51°17.256 2°52.529 -999 0.024096 0.13839 0.078977
2009-05-28 07:39:57 51°17.272 2°52.528 -999 0.027698 0.159248 0.078977
2009-05-28 07:40:03 51°17.291 2°52.525 -999 0.027184 0.156256 0.078977
2009-05-28 07:40:08 51°17.307 2°52.524 -999 0.025331 0.145525 0.113802
2009-05-28 07:40:12 51°17.32 2°52.523 -999 0.028624 0.164579 0.078977
2009-05-28 07:40:17 51°17.335 2°52.52 -999 0.029962 0.172432 0.113802
2009-05-28 07:40:22 51°17.351 2°52.519 -999 0.029962 0.172432 0.113802
2009-05-28 07:40:28 51°17.37 2°52.516 -999 0.026875 0.15447 0.078977
2009-05-28 07:40:32 51°17.383 2°52.515 -999 0.028316 0.16281 0.078977
2009-05-28 07:40:36 51°17.396 2°52.513 -999 0.026669 0.153264 0.078977
2009-05-28 07:40:42 51°17.415 2°52.511 -999 0.026875 0.154448 0.113802
2009-05-28 07:40:47 51°17.431 2°52.51 -999 0.02564 0.14726 0.078977
2009-05-28 07:40:52 51°17.446 2°52.507 -999 0.02564 0.14726 0.078977
2009-05-28 07:40:57 51°17.462 2°52.505 -999 0.025949 0.149027 0.078977
2009-05-28 07:41:03 51°17.481 2°52.502 -999 0.02636 0.151392 0.078977
2009-05-28 07:41:07 51°17.494 2°52.502 -999 0.027389 0.157388 0.078977
2009-05-28 07:41:12 51°17.51 2°52.499 -999 0.027904 0.16038 0.078977
2009-05-28 07:41:17 51°17.526 2°52.497 -999 0.026257 0.150836 0.078977
2009-05-28 07:41:22 51°17.542 2°52.495 -999 0.026257 0.150836 0.078977
2009-05-28 07:41:27 51°17.557 2°52.493 -999 0.026463 0.151996 0.078977
2009-05-28 07:41:32 51°17.573 2°52.491 -999 0.025331 0.145446 0.078977
2009-05-28 07:41:37 51°17.589 2°52.488 -999 0.026772 0.153782 0.078977
2009-05-28 07:41:43 51°17.608 2°52.487 -999 0.026566 0.152674 0.078977
2009-05-28 07:41:47 51°17.621 2°52.484 -999 0.027286 0.156864 0.078977
2009-05-28 07:41:52 51°17.637 2°52.484 -999 0.027286 0.156864 0.078977
2009-05-28 07:41:57 51°17.652 2°52.481 -999 0.026566 0.152677 0.078977
2009-05-28 07:42:03 51°17.671 2°52.48 -999 0.026669 0.153236 0.078977
2009-05-28 07:42:08 51°17.687 2°52.478 -999 0.026257 0.150811 0.078977
2009-05-28 07:42:12 51°17.7 2°52.477 -999 0.025743 0.147841 0.078977
2009-05-28 07:42:17 51°17.716 2°52.477 -999 0.026257 0.150833 0.078977
2009-05-28 07:42:22 51°17.732 2°52.475 -999 0.026257 0.150833 0.078977
2009-05-28 07:42:28 51°17.751 2°52.474 -999 0.025228 0.144897 0.078977
2009-05-28 07:42:32 51°17.763 2°52.474 -999 0.026155 0.15023 0.078977
2009-05-28 07:42:36 51°17.776 2°52.473 -999 0.025125 0.144267 0.078977
2009-05-28 07:42:42 51°17.795 2°52.471 -999 0.026566 0.152591 0.078977
2009-05-28 07:42:47 51°17.811 2°52.47 -999 0.028213 0.162237 0.078977
2009-05-28 07:42:52 51°17.827 2°52.47 -999 0.028213 0.162237 0.078977
2009-05-28 07:42:57 51°17.843 2°52.468 -999 0.026772 0.153877 0.078977
2009-05-28 07:43:02 51°17.859 2°52.467 -999 0.026463 0.15207 0.078977
2009-05-28 07:43:07 51°17.874 2°52.466 -999 0.026669 0.153256 0.078977
2009-05-28 07:43:12 51°17.89 2°52.465 -999 0.02564 0.147287 0.078977
2009-05-28 07:43:17 51°17.906 2°52.463 -999 0.026566 0.152633 0.078977
2009-05-28 07:43:23 51°17.925 2°52.462 -999 0.026566 0.152633 0.078977
2009-05-28 07:43:27 51°17.938 2°52.461 -999 0.025949 0.149043 0.078977
2009-05-28 07:43:32 51°17.954 2°52.462 -999 0.02883 0.165805 0.078977
2009-05-28 07:43:37 51°17.97 2°52.462 -999 0.02811 0.161621 0.078977
2009-05-28 07:43:43 51°17.989 2°52.465 -999 0.028418 0.163378 0.078977
2009-05-28 07:43:47 51°18.001 2°52.467 -999 0.028007 0.161024 0.113802
2009-05-28 07:43:52 51°18.017 2°52.47 -999 0.028007 0.161024 0.113802
2009-05-28 07:43:57 51°18.032 2°52.473 -999 0.02883 0.165808 0.078977
2009-05-28 07:44:03 51°18.051 2°52.478 -999 0.027698 0.159215 0.078977
2009-05-28 07:44:07 51°18.063 2°52.481 -999 0.027184 0.156224 0.078977
2009-05-28 07:44:12 51°18.078 2°52.485 -999 0.026566 0.152602 0.078977
2009-05-28 07:44:17 51°18.094 2°52.489 -999 0.027184 0.15617 0.078977
2009-05-28 07:44:23 51°18.112 2°52.495 -999 0.027184 0.15617 0.078977
2009-05-28 07:44:27 51°18.125 2°52.498 -999 0.026566 0.152569 0.078977
2009-05-28 07:44:32 51°18.14 2°52.503 -999 0.026978 0.154947 0.078977
2009-05-28 07:44:37 51°18.156 2°52.506 -999 0.032226 0.185554 0.078977
2009-05-28 07:44:43 51°18.174 2°52.513 -999 0.029653 0.1706 0.044153
2009-05-28 07:44:48 51°18.189 2°52.518 -999 0.02811 0.161639 0.078977
2009-05-28 07:44:52 51°18.201 2°52.522 -999 0.02811 0.161639 0.078977
2009-05-28 07:44:57 51°18.217 2°52.527 -999 0.027801 0.159777 0.078977
2009-05-28 07:45:02 51°18.232 2°52.532 -999 0.025949 0.149016 0.078977
2009-05-28 07:45:07 51°18.247 2°52.536 -999 0.0313 0.180086 0.078977
2009-05-28 07:45:12 51°18.263 2°52.542 -999 0.028624 0.164552 0.078977
2009-05-28 07:45:17 51°18.278 2°52.547 -999 0.027286 0.156786 0.078977
2009-05-28 07:45:23 51°18.296 2°52.554 -999 0.027286 0.156786 0.078977
2009-05-28 07:45:28 51°18.311 2°52.559 -999 0.027801 0.159751 0.078977
2009-05-28 07:45:32 51°18.323 2°52.566 -999 0.028727 0.165159 0.113802
2009-05-28 07:45:37 51°18.338 2°52.572 -999 0.026463 0.152004 0.078977
2009-05-28 07:45:43 51°18.357 2°52.58 -999 0.02811 0.161571 0.078977
2009-05-28 07:45:47 51°18.368 2°52.585 -999 0.027184 0.156184 0.078977
2009-05-28 07:45:52 51°18.384 2°52.592 -999 0.027184 0.156184 0.078977
2009-05-28 07:45:57 51°18.399 2°52.599 -999 0.026052 0.149643 0.078977
2009-05-28 07:46:03 51°18.416 2°52.607 -999 0.028933 0.166376 0.078977
2009-05-28 07:46:07 51°18.428 2°52.614 -999 0.027184 0.156199 0.078977
2009-05-28 07:46:12 51°18.444 2°52.619 -999 0.032638 0.187971 0.113802
2009-05-28 07:46:17 51°18.458 2°52.628 -999 0.027904 0.160374 0.078977
2009-05-28 07:46:23 51°18.476 2°52.635 -999 0.027904 0.160374 0.078977
2009-05-28 07:46:28 51°18.491 2°52.643 -999 0.029036 0.166931 0.078977
2009-05-28 07:46:32 51°18.503 2°52.648 -999 0.027492 0.157987 0.078977
2009-05-28 07:46:37 51°18.518 2°52.655 -999 0.028727 0.165134 0.078977
2009-05-28 07:46:43 51°18.536 2°52.664 -999 0.028007 0.160953 0.044153
2009-05-28 07:46:48 51°18.551 2°52.67 -999 0.026155 0.150203 0.078977
2009-05-28 07:46:52 51°18.563 2°52.676 -999 0.026155 0.150203 0.078977
2009-05-28 07:46:57 51°18.578 2°52.683 -999 0.028933 0.166303 0.078977
2009-05-28 07:47:03 51°18.596 2°52.691 -999 0.027081 0.155549 0.078977
2009-05-28 07:47:07 51°18.608 2°52.697 -999 0.028624 0.164513 0.113802
2009-05-28 07:47:12 51°18.623 2°52.703 -999 0.027286 0.156749 0.078977
2009-05-28 07:47:17 51°18.638 2°52.71 -999 0.027286 0.15674 0.078977
2009-05-28 07:47:23 51°18.656 2°52.719 -999 0.027286 0.15674 0.078977
2009-05-28 07:47:27 51°18.668 2°52.723 -999 0.027492 0.157935 0.113802
2009-05-28 07:47:32 51°18.683 2°52.73 -999 0.027492 0.157938 0.078977
2009-05-28 07:47:37 51°18.699 2°52.737 -999 0.027492 0.157938 0.078977
2009-05-28 07:47:42 51°18.714 2°52.743 -999 0.026566 0.152574 0.078977
2009-05-28 07:47:47 51°18.729 2°52.749 -999 0.028418 0.1633 0.078977
2009-05-28 07:47:52 51°18.744 2°52.756 -999 0.028418 0.1633 0.078977
2009-05-28 07:47:57 51°18.759 2°52.763 -999 0.02811 0.161515 0.078977
2009-05-28 07:48:03 51°18.777 2°52.771 -999 0.028007 0.160933 0.078977
2009-05-28 07:48:07 51°18.789 2°52.775 -999 0.030785 0.177168 0.078977
2009-05-28 07:48:12 51°18.804 2°52.783 -999 0.027286 0.156812 0.078977
2009-05-28 07:48:17 51°18.819 2°52.789 -999 0.027801 0.159771 0.078977
2009-05-28 07:48:23 51°18.838 2°52.796 -999 0.027801 0.159771 0.078977
2009-05-28 07:48:27 51°18.85 2°52.802 -999 0.028007 0.160959 0.078977
2009-05-28 07:48:32 51°18.865 2°52.807 -999 0.028933 0.16633 0.078977
2009-05-28 07:48:37 51°18.88 2°52.814 -999 0.02811 0.161559 0.078977
2009-05-28 07:48:43 51°18.899 2°52.821 -999 0.027801 0.159766 0.078977
2009-05-28 07:48:47 51°18.911 2°52.826 -999 0.02883 0.165778 0.078977
2009-05-28 07:48:52 51°18.926 2°52.833 -999 0.02883 0.165778 0.078977
2009-05-28 07:48:56 51°18.938 2°52.837 -999 0.033975 0.195787 0.078977
2009-05-28 07:49:03 51°18.959 2°52.847 -999 0.030477 0.175395 0.113802
2009-05-28 07:49:07 51°18.971 2°52.852 -999 0.029036 0.166974 0.078977
2009-05-28 07:49:12 51°18.987 2°52.858 -999 0.029756 0.17111 0.078977
2009-05-28 07:49:17 51°19.002 2°52.865 -999 0.029345 0.168695 0.078977
2009-05-28 07:49:23 51°19.02 2°52.872 -999 0.029345 0.168695 0.078977
2009-05-28 07:49:27 51°19.032 2°52.877 -999 0.028624 0.164501 0.078977
2009-05-28 07:49:32 51°19.047 2°52.883 -999 0.030168 0.173503 0.078977
2009-05-28 07:49:37 51°19.062 2°52.89 -999 0.029139 0.167511 0.113802
2009-05-28 07:49:42 51°19.078 2°52.895 -999 0.033049 0.190382 0.078977
2009-05-28 07:49:48 51°19.096 2°52.904 -999 0.030579 0.175913 0.113802
2009-05-28 07:49:52 51°19.108 2°52.907 -999 0.030579 0.175913 0.113802
2009-05-28 07:49:57 51°19.123 2°52.915 -999 0.031814 0.18316 0.078977
2009-05-28 07:50:03 51°19.142 2°52.921 -999 0.030168 0.173513 0.078977
2009-05-28 07:50:07 51°19.154 2°52.926 -999 0.02883 0.16576 0.078977
2009-05-28 07:50:12 51°19.169 2°52.932 -999 0.027389 0.157357 0.078977
2009-05-28 07:50:17 51°19.184 2°52.938 -999 0.02811 0.161509 0.078977
2009-05-28 07:50:23 51°19.202 2°52.945 -999 0.02811 0.161509 0.078977
2009-05-28 07:50:27 51°19.214 2°52.95 -999 0.028213 0.162121 0.078977
2009-05-28 07:50:32 51°19.229 2°52.957 -999 0.027184 0.156241 0.078977
2009-05-28 07:50:37 51°19.245 2°52.962 -999 0.02811 0.161595 0.078977
2009-05-28 07:50:43 51°19.263 2°52.97 -999 0.027904 0.160368 0.078977
2009-05-28 07:50:47 51°19.275 2°52.974 -999 0.02883 0.165717 0.078977
2009-05-28 07:50:52 51°19.29 2°52.98 -999 0.02883 0.165717 0.078977
2009-05-28 07:50:58 51°19.308 2°52.988 -999 0.028521 0.163924 0.078977
2009-05-28 07:51:03 51°19.324 2°52.994 -999 0.029859 0.171731 0.078977
2009-05-28 07:51:08 51°19.339 2°53 -999 0.027801 0.159771 0.078977
2009-05-28 07:51:12 51°19.351 2°53.004 -999 0.029756 0.171145 0.078977
2009-05-28 07:51:17 51°19.366 2°53.012 -999 0.028727 0.165159 0.078977
2009-05-28 07:51:23 51°19.385 2°53.019 -999 0.028727 0.165159 0.078977
2009-05-28 07:51:28 51°19.4 2°53.025 -999 0.029036 0.166946 0.078977
2009-05-28 07:51:32 51°19.412 2°53.031 -999 0.027286 0.156781 0.078977
2009-05-28 07:51:36 51°19.425 2°53.036 -999 0.028007 0.160942 0.078977
2009-05-28 07:51:43 51°19.446 2°53.045 -999 0.027184 0.15615 0.078977
2009-05-28 07:51:48 51°19.461 2°53.051 -999 0.02883 0.165714 0.078977
2009-05-28 07:51:52 51°19.473 2°53.057 -999 0.02883 0.165714 0.078977
2009-05-28 07:51:56 51°19.486 2°53.061 -999 0.02955 0.169857 0.078977
2009-05-28 07:52:02 51°19.504 2°53.07 -999 0.030374 0.174724 0.078977
2009-05-28 07:52:07 51°19.519 2°53.074 -999 0.034799 0.200587 0.078977
2009-05-28 07:52:12 51°19.535 2°53.082 -999 0.027904 0.160374 0.113802
2009-05-28 07:52:17 51°19.55 2°53.087 -999 0.033564 0.193319 0.078977
2009-05-28 07:52:23 51°19.568 2°53.095 -999 0.033564 0.193319 0.078977
2009-05-28 07:52:27 51°19.58 2°53.099 -999 0.029242 0.168099 0.078977
2009-05-28 07:52:32 51°19.596 2°53.105 -999 0.035107 0.20238 0.078977
2009-05-28 07:52:37 51°19.611 2°53.111 -999 0.028521 0.163939 0.078977
2009-05-28 07:52:42 51°19.626 2°53.117 -999 0.031403 0.18071 0.078977
2009-05-28 07:52:47 51°19.642 2°53.123 -999 0.030991 0.17826 0.078977
2009-05-28 07:52:52 51°19.657 2°53.129 -999 0.030991 0.17826 0.078977
2009-05-28 07:52:57 51°19.672 2°53.137 -999 0.030168 0.173513 0.078977
2009-05-28 07:53:03 51°19.69 2°53.145 -999 0.02883 0.165741 0.078977
2009-05-28 07:53:07 51°19.702 2°53.152 -999 0.02955 0.169935 0.078977
2009-05-28 07:53:12 51°19.717 2°53.16 -999 0.028007 0.160936 0.078977
2009-05-28 07:53:17 51°19.732 2°53.168 -999 0.029036 0.166888 0.113802
2009-05-28 07:53:23 51°19.749 2°53.178 -999 0.029036 0.166888 0.113802
2009-05-28 07:53:28 51°19.764 2°53.186 -999 0.027904 0.160309 0.078977
2009-05-28 07:53:32 51°19.776 2°53.192 -999 0.032226 0.185475 0.078977
2009-05-28 07:53:37 51°19.791 2°53.201 -999 0.030785 0.177083 0.078977
2009-05-28 07:53:43 51°19.809 2°53.211 -999 0.028418 0.163297 0.078977
2009-05-28 07:53:48 51°19.823 2°53.22 -999 0.027801 0.159698 0.078977
2009-05-28 07:53:52 51°19.835 2°53.227 -999 0.027801 0.159698 0.078977
2009-05-28 07:53:57 51°19.849 2°53.236 -999 0.02955 0.169847 0.078977
2009-05-28 07:54:03 51°19.866 2°53.247 -999 0.027492 0.157901 0.078977
2009-05-28 07:54:08 51°19.881 2°53.256 -999 0.027081 0.155506 0.078977
2009-05-28 07:54:12 51°19.893 2°53.263 -999 0.027184 0.156108 0.078977
2009-05-28 07:54:17 51°19.907 2°53.272 -999 0.02811 0.161462 0.078977
2009-05-28 07:54:23 51°19.925 2°53.281 -999 0.02811 0.161462 0.078977
2009-05-28 07:54:27 51°19.936 2°53.289 -999 0.030168 0.173529 0.078977
2009-05-28 07:54:32 51°19.951 2°53.296 -999 0.029036 0.166934 0.113802
2009-05-28 07:54:37 51°19.965 2°53.305 -999 0.031506 0.181311 0.078977
2009-05-28 07:54:43 51°19.983 2°53.316 -999 0.028007 0.160942 0.078977
2009-05-28 07:54:47 51°19.995 2°53.322 -999 0.029242 0.168115 0.078977
2009-05-28 07:54:52 51°20.009 2°53.332 -999 0.029242 0.168115 0.078977
2009-05-28 07:54:57 51°20.023 2°53.34 -999 0.027389 0.157365 0.078977
2009-05-28 07:55:03 51°20.04 2°53.351 -999 0.0313 0.180133 0.078977
2009-05-28 07:55:07 51°20.052 2°53.358 -999 0.030065 0.172933 0.078977
2009-05-28 07:55:13 51°20.069 2°53.369 -999 0.030374 0.174756 0.078977
2009-05-28 07:55:17 51°20.08 2°53.376 -999 0.027389 0.157423 0.113802
2009-05-28 07:55:23 51°20.098 2°53.386 -999 0.027389 0.157423 0.113802
2009-05-28 07:55:27 51°20.109 2°53.393 -999 0.027904 0.160398 0.078977
2009-05-28 07:55:32 51°20.124 2°53.401 -999 0.027801 0.159789 0.078977
2009-05-28 07:55:37 51°20.139 2°53.41 -999 0.030991 0.178332 0.078977
2009-05-28 07:55:43 51°20.156 2°53.421 -999 0.027595 0.158532 0.113802
2009-05-28 07:55:48 51°20.17 2°53.428 -999 0.031814 0.183123 0.113802
2009-05-28 07:55:52 51°20.182 2°53.437 -999 0.031814 0.183123 0.113802
2009-05-28 07:55:57 51°20.196 2°53.444 -999 0.027286 0.156783 0.113802
2009-05-28 07:56:02 51°20.211 2°53.453 -999 0.033358 0.192153 0.078977
2009-05-28 07:56:07 51°20.225 2°53.463 -999 0.028418 0.163351 0.078977
2009-05-28 07:56:12 51°20.239 2°53.47 -999 0.030065 0.172894 0.078977
2009-05-28 07:56:17 51°20.254 2°53.479 -999 0.027595 0.15852 0.078977
2009-05-28 07:56:22 51°20.268 2°53.487 -999 0.027595 0.15852 0.078977
2009-05-28 07:56:28 51°20.285 2°53.498 -999 0.030065 0.172862 0.113802
2009-05-28 07:56:32 51°20.297 2°53.505 -999 0.028521 0.163885 0.113802
2009-05-28 07:56:37 51°20.311 2°53.514 -999 0.031094 0.178876 0.078977
2009-05-28 07:56:43 51°20.328 2°53.525 -999 0.028933 0.166281 0.078977
2009-05-28 07:56:48 51°20.342 2°53.534 -999 0.029036 0.166876 0.113802
2009-05-28 07:56:52 51°20.353 2°53.543 -999 0.029036 0.166876 0.113802
2009-05-28 07:56:57 51°20.368 2°53.551 -999 0.028521 0.163861 0.078977
2009-05-28 07:57:02 51°20.382 2°53.562 -999 0.029859 0.171652 0.113802
2009-05-28 07:57:07 51°20.396 2°53.571 -999 0.028316 0.162682 0.113802
2009-05-28 07:57:13 51°20.413 2°53.582 -999 0.028316 0.162682 0.113802
2009-05-28 07:57:17 51°20.424 2°53.591 -999 0.028727 0.165056 0.078977
2009-05-28 07:57:23 51°20.442 2°53.601 -999 0.028727 0.165056 0.078977
2009-05-28 07:57:27 51°20.453 2°53.609 -999 0.026978 0.154899 0.078977
2009-05-28 07:57:32 51°20.467 2°53.618 -999 0.032843 0.189076 0.113802
2009-05-28 07:57:37 51°20.482 2°53.628 -999 0.030579 0.175868 0.078977
2009-05-28 07:57:43 51°20.499 2°53.639 -999 0.030579 0.175865 0.078977
2009-05-28 07:57:47 51°20.51 2°53.647 -999 0.031814 0.183017 0.078977
2009-05-28 07:57:52 51°20.524 2°53.655 -999 0.031814 0.183017 0.078977
2009-05-28 07:57:57 51°20.538 2°53.666 -999 0.030168 0.173439 0.113802
2009-05-28 07:58:03 51°20.556 2°53.675 -999 0.033358 0.192017 0.113802
2009-05-28 07:58:08 51°20.57 2°53.684 -999 0.028727 0.165016 0.113802
2009-05-28 07:58:12 51°20.582 2°53.691 -999 0.027389 0.157242 0.078977
2009-05-28 07:58:17 51°20.596 2°53.7 -999 0.0313 0.17995 0.113802
2009-05-28 07:58:23 51°20.613 2°53.711 -999 0.0313 0.17995 0.113802
2009-05-28 07:58:27 51°20.624 2°53.719 -999 0.028624 0.164407 0.113802
2009-05-28 07:58:32 51°20.638 2°53.728 -999 0.03202 0.184198 0.078977
2009-05-28 07:58:37 51°20.652 2°53.738 -999 0.02955 0.169804 0.078977
2009-05-28 07:58:42 51°20.667 2°53.746 -999 0.030579 0.175839 0.078977
2009-05-28 07:58:48 51°20.684 2°53.757 -999 0.035725 0.205927 0.078977
2009-05-28 07:58:52 51°20.696 2°53.763 -999 0.035725 0.205927 0.078977
2009-05-28 07:58:57 51°20.709 2°53.774 -999 0.029859 0.171671 0.113802
2009-05-28 07:59:03 51°20.726 2°53.784 -999 0.034902 0.201131 0.078977
2009-05-28 07:59:07 51°20.738 2°53.79 -999 0.02955 0.169854 0.078977
2009-05-28 07:59:12 51°20.752 2°53.799 -999 0.031197 0.179436 0.078977
2009-05-28 07:59:17 51°20.766 2°53.808 -999 0.029139 0.167415 0.078977
2009-05-28 07:59:22 51°20.781 2°53.816 -999 0.029139 0.167415 0.078977
2009-05-28 07:59:27 51°20.795 2°53.826 -999 0.027698 0.159038 0.113802
2009-05-28 07:59:32 51°20.81 2°53.834 -999 0.030682 0.176399 0.078977
2009-05-28 07:59:38 51°20.827 2°53.844 -999 0.027698 0.15905 0.078977
2009-05-28 07:59:43 51°20.841 2°53.853 -999 0.030168 0.173378 0.113802
2009-05-28 07:59:48 51°20.856 2°53.862 -999 0.028213 0.162026 0.113802
2009-05-28 07:59:52 51°20.867 2°53.869 -999 0.028213 0.162026 0.113802
2009-05-28 07:59:58 51°20.885 2°53.879 -999 0.029242 0.167991 0.078977
2009-05-28 08:00:03 51°20.899 2°53.888 -999 0.02883 0.16561 0.078977
2009-05-28 08:00:08 51°20.913 2°53.896 -999 0.028624 0.16441 0.078977
2009-05-28 08:00:12 51°20.925 2°53.903 -999 0.029242 0.167991 0.078977
2009-05-28 08:00:16 51°20.937 2°53.909 -999 0.030991 0.178174 0.113802
2009-05-28 08:00:23 51°20.957 2°53.921 -999 0.030991 0.178174 0.113802
2009-05-28 08:00:27 51°20.968 2°53.929 -999 0.028316 0.162628 0.078977
2009-05-28 08:00:32 51°20.983 2°53.936 -999 0.030888 0.177588 0.113802
2009-05-28 08:00:37 51°20.997 2°53.946 -999 0.028521 0.163828 0.113802
2009-05-28 08:00:43 51°21.015 2°53.956 -999 0.032123 0.184795 0.113802
2009-05-28 08:00:47 51°21.026 2°53.964 -999 0.027801 0.159643 0.113802
2009-05-28 08:00:52 51°21.041 2°53.972 -999 0.027801 0.159643 0.113802
2009-05-28 08:00:57 51°21.055 2°53.981 -999 0.029448 0.169184 0.113802
2009-05-28 08:01:02 51°21.069 2°53.991 -999 0.028213 0.16202 0.113802
2009-05-28 08:01:08 51°21.086 2°54.001 -999 0.031506 0.181173 0.113802
2009-05-28 08:01:12 51°21.097 2°54.009 -999 0.029653 0.170392 0.078977
2009-05-28 08:01:17 51°21.112 2°54.016 -999 0.032843 0.189052 0.078977
2009-05-28 08:01:23 51°21.129 2°54.029 -999 0.032843 0.189052 0.078977
2009-05-28 08:01:27 51°21.141 2°54.035 -999 0.027389 0.157291 0.078977
2009-05-28 08:01:32 51°21.155 2°54.044 -999 0.030477 0.175204 0.078977
2009-05-28 08:01:37 51°21.169 2°54.054 -999 0.028316 0.162622 0.113802
2009-05-28 08:01:42 51°21.184 2°54.061 -999 0.030065 0.172764 0.113802
2009-05-28 08:01:47 51°21.198 2°54.072 -999 0.027595 0.158416 0.078977
2009-05-28 08:01:52 51°21.212 2°54.079 -999 0.027595 0.158416 0.078977
2009-05-28 08:01:58 51°21.23 2°54.09 -999 0.028624 0.164359 0.113802
2009-05-28 08:02:03 51°21.244 2°54.098 -999 0.027904 0.160175 0.078977
2009-05-28 08:02:08 51°21.259 2°54.107 -999 0.030271 0.173958 0.113802
2009-05-28 08:02:12 51°21.27 2°54.114 -999 0.026772 0.153692 0.113802
2009-05-28 08:02:18 51°21.288 2°54.123 -999 0.034593 0.19928 0.113802
2009-05-28 08:02:23 51°21.302 2°54.132 -999 0.034593 0.19928 0.113802
2009-05-28 08:02:28 51°21.316 2°54.14 -999 0.029036 0.166864 0.113802
2009-05-28 08:02:32 51°21.328 2°54.147 -999 0.032843 0.189069 0.113802
2009-05-28 08:02:37 51°21.342 2°54.155 -999 0.03377 0.19444 0.078977
2009-05-28 08:02:43 51°21.36 2°54.166 -999 0.031814 0.183014 0.113802
2009-05-28 08:02:48 51°21.374 2°54.174 -999 0.031094 0.178767 0.113802
2009-05-28 08:02:52 51°21.385 2°54.181 -999 0.031094 0.178767 0.113802
2009-05-28 08:02:57 51°21.399 2°54.19 -999 0.032123 0.184737 0.113802
2009-05-28 08:03:03 51°21.416 2°54.203 -999 0.029036 0.166759 0.113802
2009-05-28 08:03:08 51°21.43 2°54.212 -999 0.038092 0.219737 0.113802
2009-05-28 08:03:12 51°21.44 2°54.223 -999 0.030991 0.178181 0.113802
2009-05-28 08:03:17 51°21.454 2°54.233 -999 0.03377 0.194393 0.078977
2009-05-28 08:03:22 51°21.467 2°54.246 -999 0.03377 0.194393 0.078977
2009-05-28 08:03:27 51°21.48 2°54.257 -999 0.029139 0.167384 0.078977
2009-05-28 08:03:32 51°21.493 2°54.27 -999 0.029448 0.169137 0.113802
2009-05-28 08:03:37 51°21.507 2°54.281 -999 0.033564 0.193171 0.113802
2009-05-28 08:03:43 51°21.522 2°54.296 -999 0.036239 0.208862 0.078977
2009-05-28 08:03:47 51°21.533 2°54.306 -999 0.030579 0.175783 0.113802
2009-05-28 08:03:52 51°21.546 2°54.319 -999 0.030579 0.175783 0.113802
2009-05-28 08:03:57 51°21.559 2°54.332 -999 0.036239 0.208886 0.113802
2009-05-28 08:04:03 51°21.575 2°54.346 -999 0.035416 0.204016 0.078977
2009-05-28 08:04:08 51°21.587 2°54.361 -999 0.032432 0.186605 0.113802
2009-05-28 08:04:12 51°21.597 2°54.37 -999 0.03696 0.213134 0.113802
2009-05-28 08:04:18 51°21.612 2°54.386 -999 0.029859 0.171592 0.113802
2009-05-28 08:04:23 51°21.626 2°54.397 -999 0.029859 0.171592 0.113802
2009-05-28 08:04:27 51°21.636 2°54.409 -999 0.038195 0.220413 0.113802
2009-05-28 08:04:32 51°21.649 2°54.421 -999 0.036034 0.207658 0.113802
2009-05-28 08:04:37 51°21.662 2°54.435 -999 0.031197 0.17939 0.113802
2009-05-28 08:04:43 51°21.678 2°54.448 -999 0.040047 0.231327 0.113802
2009-05-28 08:04:47 51°21.687 2°54.46 -999 0.031711 0.18238 0.078977
2009-05-28 08:04:52 51°21.7 2°54.474 -999 0.031711 0.18238 0.078977
2009-05-28 08:04:57 51°21.711 2°54.489 -999 0.037268 0.214934 0.078977
2009-05-28 08:05:03 51°21.725 2°54.507 -999 0.035107 0.202221 0.113802
2009-05-28 08:05:08 51°21.736 2°54.525 -999 0.037474 0.216185 0.078977
2009-05-28 08:05:12 51°21.744 2°54.538 -999 0.038709 0.22339 0.113802
2009-05-28 08:05:17 51°21.755 2°54.555 -999 0.034696 0.199846 0.113802
2009-05-28 08:05:23 51°21.768 2°54.576 -999 0.034696 0.199846 0.113802
2009-05-28 08:05:28 51°21.777 2°54.595 -999 0.031711 0.182403 0.113802
2009-05-28 08:05:32 51°21.786 2°54.608 -999 0.033049 0.190209 0.113802
2009-05-28 08:05:37 51°21.795 2°54.627 -999 0.032843 0.189002 0.113802
2009-05-28 08:05:42 51°21.805 2°54.645 -999 0.033667 0.19378 0.113802
2009-05-28 08:05:48 51°21.817 2°54.666 -999 0.030168 0.173362 0.078977
2009-05-28 08:05:52 51°21.825 2°54.681 -999 0.030168 0.173362 0.078977
2009-05-28 08:05:57 51°21.835 2°54.699 -999 0.032946 0.189547 0.113802
2009-05-28 08:06:03 51°21.847 2°54.72 -999 0.034181 0.196769 0.113802
2009-05-28 08:06:07 51°21.854 2°54.736 -999 0.030065 0.172764 0.113802
2009-05-28 08:06:12 51°21.865 2°54.753 -999 0.041694 0.240975 0.113802
2009-05-28 08:06:17 51°21.874 2°54.772 -999 0.030579 0.175767 0.113802
2009-05-28 08:06:23 51°21.887 2°54.794 -999 0.030579 0.175767 0.113802
2009-05-28 08:06:27 51°21.895 2°54.809 -999 0.037474 0.21612 0.113802
2009-05-28 08:06:32 51°21.904 2°54.828 -999 0.02955 0.169791 0.113802
2009-05-28 08:06:37 51°21.914 2°54.846 -999 0.03377 0.194378 0.113802
2009-05-28 08:06:43 51°21.925 2°54.87 -999 0.032226 0.185344 0.113802
2009-05-28 08:06:47 51°21.933 2°54.884 -999 0.033152 0.190753 0.113802
2009-05-28 08:06:52 51°21.942 2°54.904 -999 0.033152 0.190753 0.113802
2009-05-28 08:06:57 51°21.951 2°54.922 -999 0.030477 0.175136 0.113802
2009-05-28 08:07:03 51°21.962 2°54.946 -999 0.032946 0.18954 0.113802
2009-05-28 08:07:08 51°21.971 2°54.965 -999 0.031094 0.178734 0.113802
2009-05-28 08:07:12 51°21.978 2°54.981 -999 0.031094 0.178741 0.113802
2009-05-28 08:07:17 51°21.987 2°55 -999 0.029242 0.167942 0.113802
2009-05-28 08:07:23 51°21.998 2°55.023 -999 0.029242 0.167942 0.113802
2009-05-28 08:07:28 51°22.007 2°55.043 -999 0.029139 0.167329 0.113802
2009-05-28 08:07:32 51°22.014 2°55.059 -999 0.032432 0.186518 0.113802
2009-05-28 08:07:37 51°22.021 2°55.079 -999 0.028521 0.163738 0.113802
2009-05-28 08:07:43 51°22.032 2°55.102 -999 0.035828 0.206419 0.078977
2009-05-28 08:07:48 51°22.038 2°55.124 -999 0.029653 0.170352 0.113802
2009-05-28 08:07:52 51°22.045 2°55.139 -999 0.029653 0.170352 0.113802
2009-05-28 08:07:57 51°22.051 2°55.161 -999 0.032432 0.186542 0.113802
2009-05-28 08:08:02 51°22.059 2°55.181 -999 0.030579 0.175728 0.113802
2009-05-28 08:08:08 51°22.067 2°55.207 -999 0.030065 0.172713 0.113802
2009-05-28 08:08:12 51°22.073 2°55.224 -999 0.030682 0.176304 0.113802
2009-05-28 08:08:17 51°22.079 2°55.246 -999 0.02883 0.165525 0.113802
2009-05-28 08:08:23 51°22.088 2°55.272 -999 0.02883 0.165525 0.113802
2009-05-28 08:08:27 51°22.092 2°55.289 -999 0.0313 0.179883 0.113802
2009-05-28 08:08:32 51°22.099 2°55.31 -999 0.030065 0.1727 0.113802
2009-05-28 08:08:37 51°22.106 2°55.331 -999 0.02955 0.169701 0.113802
2009-05-28 08:08:43 51°22.114 2°55.357 -999 0.029756 0.170874 0.113802
2009-05-28 08:08:47 51°22.119 2°55.374 -999 0.029345 0.168484 0.113802
2009-05-28 08:08:52 51°22.125 2°55.396 -999 0.029345 0.168484 0.113802
2009-05-28 08:08:57 51°22.132 2°55.418 -999 0.028727 0.164898 0.113802
2009-05-28 08:09:03 51°22.139 2°55.444 -999 0.031403 0.180456 0.113802
2009-05-28 08:09:08 51°22.145 2°55.465 -999 0.027801 0.159526 0.113802
2009-05-28 08:09:12 51°22.151 2°55.482 -999 0.035005 0.201497 0.113802
2009-05-28 08:09:17 51°22.157 2°55.504 -999 0.029859 0.171491 0.113802
2009-05-28 08:09:23 51°22.165 2°55.53 -999 0.029859 0.171491 0.113802
2009-05-28 08:09:28 51°22.171 2°55.551 -999 0.031197 0.179274 0.113802
2009-05-28 08:09:32 51°22.176 2°55.568 -999 0.029448 0.169069 0.113802
2009-05-28 08:09:37 51°22.183 2°55.59 -999 0.030682 0.176259 0.113802
2009-05-28 08:09:43 51°22.191 2°55.616 -999 0.031609 0.181625 0.113802
2009-05-28 08:09:48 51°22.197 2°55.637 -999 0.032226 0.185272 0.113802
2009-05-28 08:09:52 51°22.202 2°55.655 -999 0.032226 0.185272 0.113802
2009-05-28 08:09:57 51°22.209 2°55.676 -999 0.032946 0.18947 0.113802
2009-05-28 08:10:03 51°22.216 2°55.702 -999 0.0313 0.179886 0.113802
2009-05-28 08:10:08 51°22.224 2°55.723 -999 0.031711 0.182194 0.113802
2009-05-28 08:10:12 51°22.229 2°55.739 -999 0.035725 0.20573 0.113802
2009-05-28 08:10:17 51°22.234 2°55.762 -999 0.037577 0.216546 0.113802
2009-05-28 08:10:22 51°22.242 2°55.781 -999 0.037577 0.216546 0.113802
2009-05-28 08:10:28 51°22.249 2°55.808 -999 0.033975 0.195477 0.113802
2009-05-28 08:10:33 51°22.256 2°55.828 -999 0.034799 0.200276 0.113802
2009-05-28 08:10:37 51°22.261 2°55.845 -999 0.034799 0.200336 0.113802
2009-05-28 08:10:43 51°22.269 2°55.871 -999 0.0313 0.179906 0.113802
2009-05-28 08:10:47 51°22.274 2°55.887 -999 0.031917 0.183506 0.113802
2009-05-28 08:10:52 51°22.281 2°55.909 -999 0.031917 0.183506 0.113802
2009-05-28 08:10:57 51°22.288 2°55.93 -999 0.036136 0.208168 0.113802
2009-05-28 08:11:03 51°22.295 2°55.956 -999 0.029139 0.167308 0.113802
2009-05-28 08:11:08 51°22.303 2°55.976 -999 0.038092 0.219617 0.113802
2009-05-28 08:11:12 51°22.307 2°55.994 -999 0.030579 0.17565 0.113802
2009-05-28 08:11:18 51°22.317 2°56.019 -999 0.036034 0.207572 0.113802
2009-05-28 08:11:23 51°22.323 2°56.04 -999 0.036034 0.207572 0.113802
2009-05-28 08:11:28 51°22.33 2°56.061 -999 0.031506 0.181099 0.113802
2009-05-28 08:11:32 51°22.335 2°56.078 -999 0.030065 0.172687 0.113802
2009-05-28 08:11:38 51°22.344 2°56.103 -999 0.033358 0.191878 0.113802
2009-05-28 08:11:43 51°22.351 2°56.124 -999 0.030579 0.175654 0.113802
2009-05-28 08:11:47 51°22.357 2°56.14 -999 0.031506 0.181049 0.113802
2009-05-28 08:11:52 51°22.363 2°56.163 -999 0.031506 0.181049 0.113802
2009-05-28 08:11:57 51°22.371 2°56.183 -999 0.031506 0.181035 0.113802
2009-05-28 08:12:03 51°22.378 2°56.208 -999 0.028418 0.163073 0.113802
2009-05-28 08:12:07 51°22.383 2°56.225 -999 0.028521 0.16363 0.113802
2009-05-28 08:12:12 51°22.39 2°56.245 -999 0.027492 0.157671 0.113802
2009-05-28 08:12:17 51°22.396 2°56.265 -999 0.028007 0.160706 0.113802
2009-05-28 08:12:22 51°22.403 2°56.286 -999 0.028007 0.160706 0.113802
2009-05-28 08:12:28 51°22.411 2°56.311 -999 0.028933 0.166165 0.113802
2009-05-28 08:12:32 51°22.417 2°56.328 -999 0.027081 0.155427 0.113802
2009-05-28 08:12:37 51°22.424 2°56.348 -999 0.027492 0.157814 0.113802
2009-05-28 08:12:43 51°22.432 2°56.373 -999 0.030785 0.176936 0.113802
2009-05-28 08:12:47 51°22.437 2°56.39 -999 0.02811 0.161379 0.113802
2009-05-28 08:12:52 51°22.445 2°56.411 -999 0.02811 0.161379 0.113802
2009-05-28 08:12:57 51°22.451 2°56.431 -999 0.03768 0.217306 0.113802
2009-05-28 08:13:02 51°22.458 2°56.452 -999 0.030168 0.173317 0.113802
2009-05-28 08:13:07 51°22.466 2°56.472 -999 0.041591 0.24028 0.113802
2009-05-28 08:13:12 51°22.471 2°56.493 -999 0.030785 0.176818 0.113802
2009-05-28 08:13:17 51°22.48 2°56.513 -999 0.035931 0.206918 0.113802
2009-05-28 08:13:23 51°22.488 2°56.539 -999 0.035931 0.206918 0.113802
2009-05-28 08:13:27 51°22.494 2°56.555 -999 0.035416 0.203897 0.113802
2009-05-28 08:13:32 51°22.5 2°56.576 -999 0.030065 0.172646 0.113802
2009-05-28 08:13:37 51°22.508 2°56.596 -999 0.034284 0.197246 0.113802
2009-05-28 08:13:43 51°22.517 2°56.621 -999 0.028933 0.166065 0.113802
2009-05-28 08:13:47 51°22.524 2°56.636 -999 0.031609 0.181655 0.113802
2009-05-28 08:13:52 51°22.532 2°56.656 -999 0.031609 0.181655 0.113802
2009-05-28 08:13:57 51°22.542 2°56.674 -999 0.028213 0.161901 0.113802
2009-05-28 08:14:03 51°22.553 2°56.696 -999 0.02955 0.169644 0.113802
2009-05-28 08:14:08 51°22.563 2°56.713 -999 0.034181 0.19671 0.148626
2009-05-28 08:14:12 51°22.571 2°56.727 -999 0.031094 0.178668 0.113802
2009-05-28 08:14:17 51°22.583 2°56.742 -999 0.029859 0.171507 0.113802
2009-05-28 08:14:23 51°22.596 2°56.761 -999 0.029859 0.171507 0.113802
2009-05-28 08:14:28 51°22.608 2°56.773 -999 0.031506 0.181049 0.113802
2009-05-28 08:14:32 51°22.618 2°56.785 -999 0.02883 0.165504 0.113802
2009-05-28 08:14:37 51°22.631 2°56.795 -999 0.02883 0.165456 0.113802
2009-05-28 08:14:43 51°22.647 2°56.808 -999 0.02811 0.161261 0.113802
2009-05-28 08:14:48 51°22.661 2°56.816 -999 0.026154 0.149952 0.113802
2009-05-28 08:14:52 51°22.673 2°56.822 -999 0.026154 0.149952 0.113802
2009-05-28 08:14:57 51°22.687 2°56.828 -999 0.026052 0.149348 0.113802
2009-05-28 08:15:03 51°22.706 2°56.833 -999 0.028213 0.161848 0.113802
2009-05-28 08:15:07 51°22.717 2°56.836 -999 0.026154 0.149942 0.113802
2009-05-28 08:15:12 51°22.733 2°56.837 -999 0.027081 0.155297 0.113802
2009-05-28 08:15:17 51°22.748 2°56.84 -999 0.026875 0.154116 0.113802
2009-05-28 08:15:22 51°22.764 2°56.839 -999 0.026875 0.154116 0.113802
2009-05-28 08:15:28 51°22.782 2°56.84 -999 0.025434 0.145787 0.113802
2009-05-28 08:15:32 51°22.795 2°56.836 -999 0.030682 0.176165 0.113802
2009-05-28 08:15:38 51°22.814 2°56.836 -999 0.028624 0.164256 0.113802
2009-05-28 08:15:43 51°22.829 2°56.831 -999 0.029448 0.169007 0.113802
2009-05-28 08:15:48 51°22.845 2°56.829 -999 0.027286 0.156472 0.113802
2009-05-28 08:15:52 51°22.858 2°56.827 -999 0.027286 0.156472 0.113802
2009-05-28 08:15:58 51°22.877 2°56.822 -999 0.029448 0.168976 0.113802
2009-05-28 08:16:03 51°22.893 2°56.818 -999 0.026463 0.151692 0.113802
2009-05-28 08:16:07 51°22.905 2°56.814 -999 0.026772 0.153486 0.113802
2009-05-28 08:16:12 51°22.922 2°56.811 -999 0.027081 0.15526 0.113802
2009-05-28 08:16:17 51°22.938 2°56.807 -999 0.025949 0.148741 0.113802
2009-05-28 08:16:23 51°22.957 2°56.802 -999 0.025949 0.148741 0.113802
2009-05-28 08:16:27 51°22.969 2°56.798 -999 0.029962 0.171972 0.113802
2009-05-28 08:16:32 51°22.985 2°56.796 -999 0.027698 0.15887 0.113802
2009-05-28 08:16:37 51°23.001 2°56.79 -999 0.026052 0.149334 0.113802
2009-05-28 08:16:43 51°23.02 2°56.785 -999 0.027904 0.160026 0.113802
2009-05-28 08:16:48 51°23.036 2°56.781 -999 0.026052 0.149318 0.113802
2009-05-28 08:16:52 51°23.048 2°56.778 -999 0.026052 0.149318 0.113802
2009-05-28 08:16:57 51°23.064 2°56.774 -999 0.025949 0.148717 0.113802
2009-05-28 08:17:03 51°23.083 2°56.77 -999 0.026257 0.150492 0.113802
2009-05-28 08:17:08 51°23.099 2°56.766 -999 0.025434 0.145745 0.113802
2009-05-28 08:17:12 51°23.112 2°56.763 -999 0.029036 0.166591 0.113802
2009-05-28 08:17:17 51°23.127 2°56.761 -999 0.027081 0.1553 0.113802
2009-05-28 08:17:23 51°23.147 2°56.758 -999 0.027081 0.1553 0.113802
2009-05-28 08:17:28 51°23.163 2°56.754 -999 0.027389 0.157078 0.113802
2009-05-28 08:17:32 51°23.175 2°56.753 -999 0.026875 0.154122 0.113802
2009-05-28 08:17:37 51°23.191 2°56.749 -999 0.02883 0.165434 0.113802
2009-05-28 08:17:43 51°23.21 2°56.747 -999 0.02883 0.165419 0.113802
2009-05-28 08:17:47 51°23.223 2°56.744 -999 0.029242 0.167849 0.113802
2009-05-28 08:17:53 51°23.242 2°56.742 -999 0.029242 0.167849 0.113802
2009-05-28 08:17:57 51°23.255 2°56.74 -999 0.028213 0.161875 0.113802
2009-05-28 08:18:03 51°23.274 2°56.738 -999 0.027081 0.155286 0.113802
2009-05-28 08:18:07 51°23.287 2°56.736 -999 0.028316 0.162447 0.113802
2009-05-28 08:18:12 51°23.303 2°56.735 -999 0.026772 0.153508 0.113802
2009-05-28 08:18:17 51°23.319 2°56.733 -999 0.027801 0.159439 0.113802
2009-05-28 08:18:23 51°23.338 2°56.731 -999 0.027801 0.159439 0.113802
2009-05-28 08:18:28 51°23.354 2°56.731 -999 0.028213 0.161839 0.113802
2009-05-28 08:18:32 51°23.367 2°56.73 -999 0.02811 0.161237 0.113802
2009-05-28 08:18:37 51°23.383 2°56.73 -999 0.02811 0.161237 0.113802
2009-05-28 08:18:43 51°23.402 2°56.73 -999 0.027492 0.157633 0.113802
2009-05-28 08:18:47 51°23.415 2°56.73 -999 0.026875 0.154063 0.113802
2009-05-28 08:18:52 51°23.431 2°56.731 -999 0.026875 0.154063 0.113802
2009-05-28 08:18:57 51°23.447 2°56.732 -999 0.027184 0.155841 0.113802
2009-05-28 08:19:03 51°23.466 2°56.732 -999 0.026052 0.149307 0.113802
2009-05-28 08:19:08 51°23.482 2°56.733 -999 0.026669 0.152866 0.113802
2009-05-28 08:19:12 51°23.495 2°56.734 -999 0.026257 0.150497 0.113802
2009-05-28 08:19:17 51°23.511 2°56.735 -999 0.026875 0.154063 0.113802
2009-05-28 08:19:23 51°23.53 2°56.737 -999 0.026875 0.154063 0.113802
2009-05-28 08:19:27 51°23.543 2°56.739 -999 0.025846 0.148116 0.113802
2009-05-28 08:19:32 51°23.559 2°56.739 -999 0.026154 0.149882 0.113802
2009-05-28 08:19:37 51°23.574 2°56.742 -999 0.025434 0.145737 0.148626
2009-05-28 08:19:43 51°23.594 2°56.742 -999 0.025743 0.147531 0.113802
2009-05-28 08:19:47 51°23.607 2°56.744 -999 0.025125 0.144009 0.113802
2009-05-28 08:19:52 51°23.622 2°56.745 -999 0.025125 0.144009 0.113802
2009-05-28 08:19:57 51°23.638 2°56.746 -999 0.032638 0.187587 0.113802
2009-05-28 08:20:03 51°23.658 2°56.748 -999 0.027698 0.158864 0.113802
2009-05-28 08:20:07 51°23.67 2°56.749 -999 0.027698 0.158847 0.113802
2009-05-28 08:20:13 51°23.689 2°56.751 -999 0.026566 0.152303 0.113802
2009-05-28 08:20:17 51°23.702 2°56.753 -999 0.029859 0.171365 0.113802
2009-05-28 08:20:23 51°23.721 2°56.754 -999 0.029859 0.171365 0.113802
2009-05-28 08:20:27 51°23.734 2°56.756 -999 0.029653 0.170236 0.113802
2009-05-28 08:20:32 51°23.75 2°56.755 -999 0.033255 0.191177 0.113802
2009-05-28 08:20:37 51°23.766 2°56.758 -999 0.034902 0.200838 0.113802
2009-05-28 08:20:43 51°23.785 2°56.76 -999 0.031609 0.181548 0.113802
2009-05-28 08:20:48 51°23.801 2°56.761 -999 0.031917 0.183363 0.113802
2009-05-28 08:20:52 51°23.814 2°56.763 -999 0.031917 0.183363 0.113802
2009-05-28 08:20:57 51°23.829 2°56.763 -999 0.029036 0.166567 0.113802
2009-05-28 08:21:03 51°23.849 2°56.765 -999 0.029345 0.168348 0.113802
2009-05-28 08:21:08 51°23.865 2°56.765 -999 0.029242 0.167748 0.113802
2009-05-28 08:21:12 51°23.877 2°56.766 -999 0.02883 0.165353 0.113802
2009-05-28 08:21:17 51°23.893 2°56.767 -999 0.02955 0.169526 0.113802
2009-05-28 08:21:22 51°23.909 2°56.769 -999 0.02955 0.169526 0.113802
2009-05-28 08:21:28 51°23.928 2°56.771 -999 0.026978 0.154635 0.113802
2009-05-28 08:21:32 51°23.94 2°56.771 -999 0.031094 0.178523 0.113802
2009-05-28 08:21:37 51°23.956 2°56.774 -999 0.027595 0.158231 0.113802
2009-05-28 08:21:43 51°23.975 2°56.775 -999 0.03377 0.194176 0.113802
2009-05-28 08:21:48 51°23.991 2°56.778 -999 0.027801 0.159451 0.148626
2009-05-28 08:21:52 51°24.004 2°56.778 -999 0.027801 0.159451 0.148626
2009-05-28 08:21:57 51°24.019 2°56.779 -999 0.028007 0.160583 0.113802
2009-05-28 08:22:03 51°24.038 2°56.78 -999 0.027698 0.158765 0.113802
2009-05-28 08:22:07 51°24.051 2°56.781 -999 0.028624 0.164151 0.113802
2009-05-28 08:22:12 51°24.066 2°56.784 -999 0.027286 0.156435 0.113802
2009-05-28 08:22:17 51°24.082 2°56.785 -999 0.030271 0.173797 0.113802
2009-05-28 08:22:23 51°24.101 2°56.788 -999 0.030271 0.173797 0.113802
2009-05-28 08:22:27 51°24.114 2°56.789 -999 0.028316 0.162471 0.113802
2009-05-28 08:22:32 51°24.129 2°56.79 -999 0.027904 0.16009 0.113802
2009-05-28 08:22:37 51°24.145 2°56.792 -999 0.027184 0.155911 0.113802
2009-05-28 08:22:43 51°24.164 2°56.794 -999 0.027492 0.157682 0.113802
2009-05-28 08:22:47 51°24.177 2°56.795 -999 0.027801 0.159445 0.113802
2009-05-28 08:22:52 51°24.193 2°56.797 -999 0.027801 0.159445 0.113802
2009-05-28 08:22:57 51°24.209 2°56.799 -999 0.026978 0.154669 0.113802
2009-05-28 08:23:03 51°24.228 2°56.801 -999 0.026875 0.154074 0.113802
2009-05-28 08:23:08 51°24.244 2°56.802 -999 0.026669 0.152864 0.113802
2009-05-28 08:23:12 51°24.256 2°56.803 -999 0.026257 0.150486 0.113802
2009-05-28 08:23:17 51°24.272 2°56.805 -999 0.026669 0.152855 0.113802
2009-05-28 08:23:23 51°24.292 2°56.806 -999 0.026669 0.152855 0.113802
2009-05-28 08:23:27 51°24.304 2°56.807 -999 0.026463 0.151648 0.113802
2009-05-28 08:23:32 51°24.32 2°56.809 -999 0.02636 0.151022 0.113802
2009-05-28 08:23:37 51°24.336 2°56.81 -999 0.026463 0.151596 0.113802
2009-05-28 08:23:43 51°24.355 2°56.811 -999 0.02883 0.16528 0.113802
2009-05-28 08:23:48 51°24.37 2°56.813 -999 0.025949 0.148644 0.113802
2009-05-28 08:23:52 51°24.383 2°56.814 -999 0.025949 0.148644 0.113802
2009-05-28 08:23:57 51°24.399 2°56.816 -999 0.026875 0.153962 0.113802
2009-05-28 08:24:03 51°24.418 2°56.818 -999 0.026772 0.153371 0.113802
2009-05-28 08:24:08 51°24.434 2°56.82 -999 0.025949 0.148631 0.113802
2009-05-28 08:24:12 51°24.447 2°56.82 -999 0.026154 0.149836 0.113802
2009-05-28 08:24:17 51°24.462 2°56.822 -999 0.026978 0.154671 0.113802
2009-05-28 08:24:23 51°24.482 2°56.824 -999 0.026978 0.154671 0.113802
2009-05-28 08:24:27 51°24.494 2°56.826 -999 0.027286 0.156489 0.113802
2009-05-28 08:24:33 51°24.513 2°56.828 -999 0.02636 0.151137 0.113802
2009-05-28 08:24:37 51°24.526 2°56.828 -999 0.028213 0.161857 0.113802
2009-05-28 08:24:43 51°24.545 2°56.832 -999 0.026875 0.154085 0.113802
2009-05-28 08:24:48 51°24.561 2°56.833 -999 0.027801 0.15943 0.113802
2009-05-28 08:24:52 51°24.574 2°56.835 -999 0.027801 0.15943 0.113802
2009-05-28 08:24:58 51°24.593 2°56.836 -999 0.026875 0.154083 0.113802
2009-05-28 08:25:03 51°24.609 2°56.838 -999 0.028213 0.161851 0.113802
2009-05-28 08:25:08 51°24.625 2°56.84 -999 0.025949 0.148768 0.113802
2009-05-28 08:25:12 51°24.638 2°56.84 -999 0.029653 0.170195 0.113802
2009-05-28 08:25:18 51°24.657 2°56.844 -999 0.026978 0.154669 0.113802
2009-05-28 08:25:23 51°24.673 2°56.844 -999 0.026978 0.154669 0.113802
2009-05-28 08:25:28 51°24.689 2°56.846 -999 0.028316 0.162384 0.148626
2009-05-28 08:25:32 51°24.702 2°56.848 -999 0.026875 0.154038 0.113802
2009-05-28 08:25:37 51°24.718 2°56.849 -999 0.027081 0.155209 0.113802
2009-05-28 08:25:43 51°24.737 2°56.852 -999 0.027286 0.156401 0.113802
2009-05-28 08:25:48 51°24.753 2°56.853 -999 0.028007 0.160554 0.113802
2009-05-28 08:25:52 51°24.766 2°56.853 -999 0.028007 0.160554 0.113802
2009-05-28 08:25:57 51°24.782 2°56.856 -999 0.027595 0.158176 0.113802
2009-05-28 08:26:02 51°24.798 2°56.857 -999 0.027904 0.159961 0.113802
2009-05-28 08:26:08 51°24.818 2°56.859 -999 0.028521 0.163528 0.113802
2009-05-28 08:26:12 51°24.83 2°56.861 -999 0.026669 0.152822 0.113802
2009-05-28 08:26:18 51°24.85 2°56.863 -999 0.028727 0.164717 0.113802
2009-05-28 08:26:23 51°24.866 2°56.866 -999 0.028727 0.164717 0.113802
2009-05-28 08:26:27 51°24.879 2°56.867 -999 0.027492 0.15759 0.113802
2009-05-28 08:26:32 51°24.895 2°56.868 -999 0.029653 0.170073 0.113802
2009-05-28 08:26:37 51°24.91 2°56.871 -999 0.027595 0.158162 0.113802
2009-05-28 08:26:43 51°24.93 2°56.873 -999 0.028521 0.163546 0.113802
2009-05-28 08:26:47 51°24.942 2°56.875 -999 0.026875 0.154004 0.113802
2009-05-28 08:26:52 51°24.959 2°56.876 -999 0.026875 0.154004 0.113802
2009-05-28 08:26:57 51°24.974 2°56.879 -999 0.027801 0.159372 0.148626
2009-05-28 08:27:03 51°24.994 2°56.881 -999 0.027698 0.158745 0.113802
2009-05-28 08:27:07 51°25.006 2°56.884 -999 0.026978 0.154562 0.148626
2009-05-28 08:27:12 51°25.022 2°56.885 -999 0.025537 0.146261 0.113802
2009-05-28 08:27:18 51°25.041 2°56.887 -999 0.02564 0.146853 0.113802
2009-05-28 08:27:23 51°25.057 2°56.889 -999 0.02564 0.146853 0.113802
2009-05-28 08:27:28 51°25.073 2°56.891 -999 0.025331 0.145077 0.148626
2009-05-28 08:27:32 51°25.086 2°56.891 -999 0.026566 0.152195 0.113802
2009-05-28 08:27:38 51°25.105 2°56.894 -999 0.026052 0.149235 0.113802
2009-05-28 08:27:43 51°25.121 2°56.895 -999 0.030374 0.174309 0.113802
2009-05-28 08:27:48 51°25.137 2°56.897 -999 0.029756 0.170705 0.113802
2009-05-28 08:27:52 51°25.15 2°56.898 -999 0.029756 0.170705 0.113802
2009-05-28 08:27:57 51°25.166 2°56.901 -999 0.028213 0.161756 0.148626
2009-05-28 08:28:03 51°25.185 2°56.901 -999 0.033564 0.192844 0.148626
2009-05-28 08:28:08 51°25.201 2°56.904 -999 0.027698 0.15876 0.113802
2009-05-28 08:28:12 51°25.214 2°56.904 -999 0.032535 0.186845 0.113802
2009-05-28 08:28:17 51°25.23 2°56.908 -999 0.027081 0.155175 0.148626
2009-05-28 08:28:23 51°25.249 2°56.909 -999 0.027081 0.155175 0.148626
2009-05-28 08:28:28 51°25.266 2°56.911 -999 0.027492 0.157541 0.148626
2009-05-28 08:28:32 51°25.278 2°56.912 -999 0.030682 0.176038 0.113802
2009-05-28 08:28:37 51°25.294 2°56.915 -999 0.028316 0.162343 0.113802
2009-05-28 08:28:42 51°25.31 2°56.915 -999 0.029036 0.166518 0.113802
2009-05-28 08:28:48 51°25.329 2°56.919 -999 0.027492 0.157585 0.113802
2009-05-28 08:28:53 51°25.345 2°56.921 -999 0.027492 0.157585 0.113802
2009-05-28 08:28:57 51°25.358 2°56.921 -999 0.028418 0.162936 0.113802
2009-05-28 08:29:03 51°25.377 2°56.924 -999 0.027286 0.156367 0.113802
2009-05-28 08:29:07 51°25.39 2°56.925 -999 0.028007 0.160533 0.113802
2009-05-28 08:29:12 51°25.406 2°56.927 -999 0.027492 0.15755 0.113802
2009-05-28 08:29:18 51°25.425 2°56.929 -999 0.026978 0.15457 0.113802
2009-05-28 08:29:23 51°25.441 2°56.93 -999 0.026978 0.15457 0.113802
2009-05-28 08:29:27 51°25.454 2°56.932 -999 0.028007 0.160536 0.148626
2009-05-28 08:29:32 51°25.47 2°56.933 -999 0.026463 0.151607 0.113802
2009-05-28 08:29:38 51°25.489 2°56.935 -999 0.027801 0.159331 0.113802
2009-05-28 08:29:43 51°25.505 2°56.937 -999 0.026875 0.153982 0.113802
2009-05-28 08:29:48 51°25.521 2°56.938 -999 0.026772 0.153385 0.113802
2009-05-28 08:29:52 51°25.533 2°56.94 -999 0.026772 0.153385 0.113802
2009-05-28 08:29:58 51°25.552 2°56.941 -999 0.029139 0.167099 0.148626
2009-05-28 08:30:03 51°25.568 2°56.945 -999 0.027801 0.159398 0.148626
2009-05-28 08:30:07 51°25.581 2°56.945 -999 0.026257 0.150415 0.148626
2009-05-28 08:30:12 51°25.596 2°56.947 -999 0.027904 0.1599 0.113802
2009-05-28 08:30:17 51°25.612 2°56.949 -999 0.027081 0.155139 0.113802
2009-05-28 08:30:22 51°25.628 2°56.95 -999 0.027081 0.155139 0.113802
2009-05-28 08:30:28 51°25.647 2°56.953 -999 0.030065 0.17244 0.113802
2009-05-28 08:30:32 51°25.66 2°56.954 -999 0.028727 0.16472 0.113802
2009-05-28 08:30:37 51°25.676 2°56.957 -999 0.026875 0.15399 0.113802
2009-05-28 08:30:43 51°25.695 2°56.959 -999 0.026772 0.15338 0.113802
2009-05-28 08:30:48 51°25.711 2°56.961 -999 0.026154 0.149811 0.113802
2009-05-28 08:30:52 51°25.724 2°56.963 -999 0.026154 0.149811 0.113802
2009-05-28 08:30:57 51°25.74 2°56.964 -999 0.026463 0.151585 0.113802
2009-05-28 08:31:03 51°25.759 2°56.967 -999 0.026772 0.153396 0.148626
2009-05-28 08:31:07 51°25.771 2°56.969 -999 0.033152 0.190474 0.113802
2009-05-28 08:31:13 51°25.79 2°56.975 -999 0.028418 0.162986 0.113802
2009-05-28 08:31:17 51°25.802 2°56.978 -999 0.033873 0.194694 0.113802
2009-05-28 08:31:23 51°25.821 2°56.984 -999 0.033873 0.194694 0.113802
2009-05-28 08:31:27 51°25.833 2°56.988 -999 0.028418 0.162971 0.113802
2009-05-28 08:31:32 51°25.848 2°56.993 -999 0.028213 0.161744 0.113802
2009-05-28 08:31:37 51°25.864 2°56.999 -999 0.027286 0.15639 0.113802
2009-05-28 08:31:43 51°25.882 2°57.006 -999 0.026772 0.153408 0.148626
2009-05-28 08:31:48 51°25.898 2°57.011 -999 0.030785 0.176701 0.113802
2009-05-28 08:31:52 51°25.909 2°57.016 -999 0.030785 0.176701 0.113802
2009-05-28 08:31:58 51°25.928 2°57.024 -999 0.026978 0.15464 0.113802
2009-05-28 08:32:03 51°25.943 2°57.028 -999 0.041694 0.240637 0.113802
2009-05-28 08:32:08 51°25.958 2°57.037 -999 0.030682 0.176129 0.113802
2009-05-28 08:32:12 51°25.971 2°57.039 -999 0.039841 0.22976 0.113802
2009-05-28 08:32:17 51°25.985 2°57.049 -999 0.028933 0.165958 0.113802
2009-05-28 08:32:23 51°26.004 2°57.054 -999 0.028933 0.165958 0.113802
2009-05-28 08:32:28 51°26.019 2°57.062 -999 0.032946 0.189273 0.148626
2009-05-28 08:32:32 51°26.031 2°57.066 -999 0.029242 0.167699 0.113802
2009-05-28 08:32:37 51°26.046 2°57.073 -999 0.029036 0.166497 0.113802
2009-05-28 08:32:43 51°26.064 2°57.081 -999 0.029448 0.168883 0.148626
2009-05-28 08:32:48 51°26.08 2°57.087 -999 0.031814 0.182648 0.148626
2009-05-28 08:32:52 51°26.092 2°57.091 -999 0.031814 0.182648 0.148626
2009-05-28 08:32:57 51°26.106 2°57.099 -999 0.032946 0.189325 0.113802
2009-05-28 08:33:03 51°26.125 2°57.107 -999 0.0313 0.179737 0.113802
2009-05-28 08:33:08 51°26.14 2°57.114 -999 0.027801 0.159375 0.148626
2009-05-28 08:33:12 51°26.152 2°57.118 -999 0.029859 0.171283 0.148626
2009-05-28 08:33:18 51°26.17 2°57.127 -999 0.028727 0.164702 0.113802
2009-05-28 08:33:22 51°26.183 2°57.131 -999 0.028727 0.164702 0.113802
2009-05-28 08:33:28 51°26.201 2°57.14 -999 0.029756 0.170714 0.148626
2009-05-28 08:33:32 51°26.214 2°57.143 -999 0.031814 0.182655 0.113802
2009-05-28 08:33:38 51°26.232 2°57.152 -999 0.029448 0.168914 0.148626
2009-05-28 08:33:43 51°26.247 2°57.157 -999 0.026875 0.154001 0.113802
2009-05-28 08:33:48 51°26.263 2°57.164 -999 0.028624 0.164094 0.113802